<?xml version="1.0" encoding="UTF-8"?>
<gpx version="1.1" creator="https://www.youtrack.es" xsi:schemaLocation="http://www.topografix.com/GPX/1/1 http://www.topografix.com/GPX/1/1/gpx.xsd http://www.garmin.com/xmlschemas/GpxExtensions/v3 http://www.garmin.com/xmlschemas/GpxExtensionsv3.xsd http://www.garmin.com/xmlschemas/TrackPointExtension/v1 http://www.garmin.com/xmlschemas/TrackPointExtensionv1.xsd" xmlns:gpxtpx="http://www.garmin.com/xmlschemas/TrackPointExtension/v1" xmlns:gpxx="http://www.garmin.com/xmlschemas/GpxExtensions/v3" xmlns:xsi="http://www.w3.org/2001/XMLSchema-instance">
  <metadata>
    <link href="https://www.youtrack.es">
      <text>YouTrack.es</text>
    </link>
    <time>2026-05-09T03:21:38Z</time>
  </metadata>
  <trk>
    <src>https://www.youtrack.es</src>
    <link href="https://www.youtrack.es/ruta/2531-la-canal-ripoll">
      <text>YouTrack.es</text>
    </link>
    <trkseg>
      <trkpt lat="42.23140904" lon="2.073605060">
        <ele>1126.0000</ele>
        <time>2010-01-01T00:00:00Z</time>
      </trkpt>
      <trkpt lat="42.23178241" lon="2.073519229">
        <ele>1123.0000</ele>
        <time>2010-01-01T00:00:15Z</time>
      </trkpt>
      <trkpt lat="42.23210017" lon="2.073293924">
        <ele>1123.0000</ele>
        <time>2010-01-01T00:00:29Z</time>
      </trkpt>
      <trkpt lat="42.23227493" lon="2.073068618">
        <ele>1126.0000</ele>
        <time>2010-01-01T00:00:39Z</time>
      </trkpt>
      <trkpt lat="42.23262446" lon="2.072961330">
        <ele>1121.0000</ele>
        <time>2010-01-01T00:00:53Z</time>
      </trkpt>
      <trkpt lat="42.23291839" lon="2.072843313">
        <ele>1122.0000</ele>
        <time>2010-01-01T00:01:05Z</time>
      </trkpt>
      <trkpt lat="42.23321231" lon="2.072875499">
        <ele>1121.0000</ele>
        <time>2010-01-01T00:01:17Z</time>
      </trkpt>
      <trkpt lat="42.23346651" lon="2.073004245">
        <ele>1121.0000</ele>
        <time>2010-01-01T00:01:28Z</time>
      </trkpt>
      <trkpt lat="42.23356978" lon="2.073347568">
        <ele>1121.0000</ele>
        <time>2010-01-01T00:01:39Z</time>
      </trkpt>
      <trkpt lat="42.23365716" lon="2.073647975">
        <ele>1120.0000</ele>
        <time>2010-01-01T00:01:49Z</time>
      </trkpt>
      <trkpt lat="42.23377631" lon="2.074066400">
        <ele>1118.0000</ele>
        <time>2010-01-01T00:02:02Z</time>
      </trkpt>
      <trkpt lat="42.23400668" lon="2.074205875">
        <ele>1120.0000</ele>
        <time>2010-01-01T00:02:12Z</time>
      </trkpt>
      <trkpt lat="42.23442770" lon="2.074098587">
        <ele>1119.0000</ele>
        <time>2010-01-01T00:02:29Z</time>
      </trkpt>
      <trkpt lat="42.23477721" lon="2.073916196">
        <ele>1118.0000</ele>
        <time>2010-01-01T00:02:44Z</time>
      </trkpt>
      <trkpt lat="42.23509496" lon="2.073647975">
        <ele>1119.0000</ele>
        <time>2010-01-01T00:02:59Z</time>
      </trkpt>
      <trkpt lat="42.23533326" lon="2.073401212">
        <ele>1120.0000</ele>
        <time>2010-01-01T00:03:11Z</time>
      </trkpt>
      <trkpt lat="42.23555568" lon="2.073218822">
        <ele>1119.0000</ele>
        <time>2010-01-01T00:03:22Z</time>
      </trkpt>
      <trkpt lat="42.23577810" lon="2.073122262">
        <ele>1116.0000</ele>
        <time>2010-01-01T00:03:31Z</time>
      </trkpt>
      <trkpt lat="42.23597900" lon="2.073153000">
        <ele>1114.0000</ele>
        <time>2010-01-01T00:03:39Z</time>
      </trkpt>
      <trkpt lat="42.23616600" lon="2.073198000">
        <ele>1111.0000</ele>
        <time>2010-01-01T00:03:47Z</time>
      </trkpt>
      <trkpt lat="42.23628700" lon="2.073227000">
        <ele>1109.0000</ele>
        <time>2010-01-01T00:03:51Z</time>
      </trkpt>
      <trkpt lat="42.23638600" lon="2.073281000">
        <ele>1107.0000</ele>
        <time>2010-01-01T00:03:56Z</time>
      </trkpt>
      <trkpt lat="42.23658700" lon="2.073277000">
        <ele>1107.0000</ele>
        <time>2010-01-01T00:04:04Z</time>
      </trkpt>
      <trkpt lat="42.23668900" lon="2.073235000">
        <ele>1108.0000</ele>
        <time>2010-01-01T00:04:08Z</time>
      </trkpt>
      <trkpt lat="42.23683700" lon="2.073135000">
        <ele>1111.0000</ele>
        <time>2010-01-01T00:04:15Z</time>
      </trkpt>
      <trkpt lat="42.23687900" lon="2.073094000">
        <ele>1112.0000</ele>
        <time>2010-01-01T00:04:17Z</time>
      </trkpt>
      <trkpt lat="42.23689700" lon="2.073264000">
        <ele>1108.0000</ele>
        <time>2010-01-01T00:04:22Z</time>
      </trkpt>
      <trkpt lat="42.23666500" lon="2.073442000">
        <ele>1103.0000</ele>
        <time>2010-01-01T00:04:33Z</time>
      </trkpt>
      <trkpt lat="42.23661800" lon="2.073497000">
        <ele>1102.0000</ele>
        <time>2010-01-01T00:04:35Z</time>
      </trkpt>
      <trkpt lat="42.23636000" lon="2.073732000">
        <ele>1094.0000</ele>
        <time>2010-01-01T00:04:47Z</time>
      </trkpt>
      <trkpt lat="42.23605700" lon="2.073790000">
        <ele>1096.0000</ele>
        <time>2010-01-01T00:05:00Z</time>
      </trkpt>
      <trkpt lat="42.23585400" lon="2.074020000">
        <ele>1096.0000</ele>
        <time>2010-01-01T00:05:10Z</time>
      </trkpt>
      <trkpt lat="42.23581100" lon="2.074164000">
        <ele>1095.0000</ele>
        <time>2010-01-01T00:05:15Z</time>
      </trkpt>
      <trkpt lat="42.23579300" lon="2.074289000">
        <ele>1093.0000</ele>
        <time>2010-01-01T00:05:19Z</time>
      </trkpt>
      <trkpt lat="42.23577900" lon="2.074427000">
        <ele>1090.0000</ele>
        <time>2010-01-01T00:05:23Z</time>
      </trkpt>
      <trkpt lat="42.23587300" lon="2.075110000">
        <ele>1080.0000</ele>
        <time>2010-01-01T00:05:43Z</time>
      </trkpt>
      <trkpt lat="42.23566600" lon="2.075336000">
        <ele>1079.0000</ele>
        <time>2010-01-01T00:05:54Z</time>
      </trkpt>
      <trkpt lat="42.23548900" lon="2.075312000">
        <ele>1079.0000</ele>
        <time>2010-01-01T00:06:01Z</time>
      </trkpt>
      <trkpt lat="42.23538900" lon="2.075220000">
        <ele>1080.0000</ele>
        <time>2010-01-01T00:06:06Z</time>
      </trkpt>
      <trkpt lat="42.23527600" lon="2.075125000">
        <ele>1080.0000</ele>
        <time>2010-01-01T00:06:11Z</time>
      </trkpt>
      <trkpt lat="42.23518600" lon="2.075069000">
        <ele>1080.0000</ele>
        <time>2010-01-01T00:06:15Z</time>
      </trkpt>
      <trkpt lat="42.23485500" lon="2.075096000">
        <ele>1079.0000</ele>
        <time>2010-01-01T00:06:29Z</time>
      </trkpt>
      <trkpt lat="42.23473400" lon="2.075222000">
        <ele>1077.0000</ele>
        <time>2010-01-01T00:06:35Z</time>
      </trkpt>
      <trkpt lat="42.23446600" lon="2.075562000">
        <ele>1078.0000</ele>
        <time>2010-01-01T00:06:49Z</time>
      </trkpt>
      <trkpt lat="42.23410500" lon="2.076147000">
        <ele>1065.0000</ele>
        <time>2010-01-01T00:07:12Z</time>
      </trkpt>
      <trkpt lat="42.23404900" lon="2.076224000">
        <ele>1064.0000</ele>
        <time>2010-01-01T00:07:15Z</time>
      </trkpt>
      <trkpt lat="42.23399200" lon="2.076290000">
        <ele>1063.0000</ele>
        <time>2010-01-01T00:07:18Z</time>
      </trkpt>
      <trkpt lat="42.23356100" lon="2.076163000">
        <ele>1065.0000</ele>
        <time>2010-01-01T00:07:36Z</time>
      </trkpt>
      <trkpt lat="42.23348800" lon="2.076108000">
        <ele>1065.0000</ele>
        <time>2010-01-01T00:07:39Z</time>
      </trkpt>
      <trkpt lat="42.23330300" lon="2.075920000">
        <ele>1066.0000</ele>
        <time>2010-01-01T00:07:49Z</time>
      </trkpt>
      <trkpt lat="42.23320400" lon="2.076086000">
        <ele>1059.0000</ele>
        <time>2010-01-01T00:07:55Z</time>
      </trkpt>
      <trkpt lat="42.23338600" lon="2.076241000">
        <ele>1060.0000</ele>
        <time>2010-01-01T00:08:03Z</time>
      </trkpt>
      <trkpt lat="42.23352700" lon="2.076507000">
        <ele>1055.0000</ele>
        <time>2010-01-01T00:08:13Z</time>
      </trkpt>
      <trkpt lat="42.23361400" lon="2.076714000">
        <ele>1052.0000</ele>
        <time>2010-01-01T00:08:20Z</time>
      </trkpt>
      <trkpt lat="42.23368700" lon="2.076815000">
        <ele>1050.0000</ele>
        <time>2010-01-01T00:08:24Z</time>
      </trkpt>
      <trkpt lat="42.23384900" lon="2.076856000">
        <ele>1049.0000</ele>
        <time>2010-01-01T00:08:31Z</time>
      </trkpt>
      <trkpt lat="42.23390900" lon="2.076843000">
        <ele>1049.0000</ele>
        <time>2010-01-01T00:08:33Z</time>
      </trkpt>
      <trkpt lat="42.23409200" lon="2.076803000">
        <ele>1049.0000</ele>
        <time>2010-01-01T00:08:41Z</time>
      </trkpt>
      <trkpt lat="42.23433200" lon="2.076804000">
        <ele>1045.0000</ele>
        <time>2010-01-01T00:08:50Z</time>
      </trkpt>
      <trkpt lat="42.23439700" lon="2.076801000">
        <ele>1044.0000</ele>
        <time>2010-01-01T00:08:53Z</time>
      </trkpt>
      <trkpt lat="42.23451100" lon="2.076753000">
        <ele>1043.0000</ele>
        <time>2010-01-01T00:08:58Z</time>
      </trkpt>
      <trkpt lat="42.23468400" lon="2.076494000">
        <ele>1045.0000</ele>
        <time>2010-01-01T00:09:08Z</time>
      </trkpt>
      <trkpt lat="42.23477400" lon="2.076300000">
        <ele>1048.0000</ele>
        <time>2010-01-01T00:09:15Z</time>
      </trkpt>
      <trkpt lat="42.23486400" lon="2.076210000">
        <ele>1050.0000</ele>
        <time>2010-01-01T00:09:19Z</time>
      </trkpt>
      <trkpt lat="42.23504200" lon="2.076339000">
        <ele>1046.0000</ele>
        <time>2010-01-01T00:09:28Z</time>
      </trkpt>
      <trkpt lat="42.23508300" lon="2.076480000">
        <ele>1044.0000</ele>
        <time>2010-01-01T00:09:32Z</time>
      </trkpt>
      <trkpt lat="42.23527000" lon="2.076820000">
        <ele>1039.0000</ele>
        <time>2010-01-01T00:09:45Z</time>
      </trkpt>
      <trkpt lat="42.23531700" lon="2.076939000">
        <ele>1036.0000</ele>
        <time>2010-01-01T00:09:49Z</time>
      </trkpt>
      <trkpt lat="42.23533700" lon="2.077002000">
        <ele>1035.0000</ele>
        <time>2010-01-01T00:09:51Z</time>
      </trkpt>
      <trkpt lat="42.23543600" lon="2.077160000">
        <ele>1030.0000</ele>
        <time>2010-01-01T00:09:57Z</time>
      </trkpt>
      <trkpt lat="42.23560900" lon="2.077365000">
        <ele>1025.0000</ele>
        <time>2010-01-01T00:10:06Z</time>
      </trkpt>
      <trkpt lat="42.23582100" lon="2.077417000">
        <ele>1023.0000</ele>
        <time>2010-01-01T00:10:15Z</time>
      </trkpt>
      <trkpt lat="42.23606900" lon="2.077358000">
        <ele>1023.0000</ele>
        <time>2010-01-01T00:10:25Z</time>
      </trkpt>
      <trkpt lat="42.23613400" lon="2.077349000">
        <ele>1022.0000</ele>
        <time>2010-01-01T00:10:27Z</time>
      </trkpt>
      <trkpt lat="42.23639600" lon="2.077327000">
        <ele>1017.0000</ele>
        <time>2010-01-01T00:10:38Z</time>
      </trkpt>
      <trkpt lat="42.23660800" lon="2.077217000">
        <ele>1016.0000</ele>
        <time>2010-01-01T00:10:47Z</time>
      </trkpt>
      <trkpt lat="42.23676700" lon="2.076961000">
        <ele>1016.0000</ele>
        <time>2010-01-01T00:10:57Z</time>
      </trkpt>
      <trkpt lat="42.23692700" lon="2.076687000">
        <ele>1016.0000</ele>
        <time>2010-01-01T00:11:07Z</time>
      </trkpt>
      <trkpt lat="42.23702400" lon="2.076283000">
        <ele>1021.0000</ele>
        <time>2010-01-01T00:11:20Z</time>
      </trkpt>
      <trkpt lat="42.23722800" lon="2.076290000">
        <ele>1020.0000</ele>
        <time>2010-01-01T00:11:28Z</time>
      </trkpt>
      <trkpt lat="42.23733000" lon="2.076779000">
        <ele>1011.0000</ele>
        <time>2010-01-01T00:11:43Z</time>
      </trkpt>
      <trkpt lat="42.23735000" lon="2.076849000">
        <ele>1009.0000</ele>
        <time>2010-01-01T00:11:45Z</time>
      </trkpt>
      <trkpt lat="42.23740000" lon="2.076996000">
        <ele>1007.0000</ele>
        <time>2010-01-01T00:11:50Z</time>
      </trkpt>
      <trkpt lat="42.23756600" lon="2.077428000">
        <ele>999.00000</ele>
        <time>2010-01-01T00:12:04Z</time>
      </trkpt>
      <trkpt lat="42.23762200" lon="2.077642000">
        <ele>995.00000</ele>
        <time>2010-01-01T00:12:11Z</time>
      </trkpt>
      <trkpt lat="42.23788500" lon="2.077773000">
        <ele>992.00000</ele>
        <time>2010-01-01T00:12:22Z</time>
      </trkpt>
      <trkpt lat="42.23803300" lon="2.077546000">
        <ele>993.00000</ele>
        <time>2010-01-01T00:12:31Z</time>
      </trkpt>
      <trkpt lat="42.23822600" lon="2.077280000">
        <ele>1002.0000</ele>
        <time>2010-01-01T00:12:42Z</time>
      </trkpt>
      <trkpt lat="42.23836400" lon="2.077347000">
        <ele>1001.0000</ele>
        <time>2010-01-01T00:12:48Z</time>
      </trkpt>
      <trkpt lat="42.23841000" lon="2.077396000">
        <ele>999.00000</ele>
        <time>2010-01-01T00:12:51Z</time>
      </trkpt>
      <trkpt lat="42.23873500" lon="2.077704000">
        <ele>988.00000</ele>
        <time>2010-01-01T00:13:06Z</time>
      </trkpt>
      <trkpt lat="42.23899200" lon="2.077716000">
        <ele>987.00000</ele>
        <time>2010-01-01T00:13:17Z</time>
      </trkpt>
      <trkpt lat="42.23919300" lon="2.077710000">
        <ele>985.00000</ele>
        <time>2010-01-01T00:13:25Z</time>
      </trkpt>
      <trkpt lat="42.23925500" lon="2.077710000">
        <ele>985.00000</ele>
        <time>2010-01-01T00:13:27Z</time>
      </trkpt>
      <trkpt lat="42.23936800" lon="2.077681000">
        <ele>984.00000</ele>
        <time>2010-01-01T00:13:32Z</time>
      </trkpt>
      <trkpt lat="42.23954200" lon="2.077554000">
        <ele>986.00000</ele>
        <time>2010-01-01T00:13:40Z</time>
      </trkpt>
      <trkpt lat="42.23973300" lon="2.077345000">
        <ele>989.00000</ele>
        <time>2010-01-01T00:13:50Z</time>
      </trkpt>
      <trkpt lat="42.23998400" lon="2.077462000">
        <ele>985.00000</ele>
        <time>2010-01-01T00:14:00Z</time>
      </trkpt>
      <trkpt lat="42.24004400" lon="2.077600000">
        <ele>981.00000</ele>
        <time>2010-01-01T00:14:05Z</time>
      </trkpt>
      <trkpt lat="42.24032800" lon="2.077782000">
        <ele>978.00000</ele>
        <time>2010-01-01T00:14:18Z</time>
      </trkpt>
      <trkpt lat="42.24070700" lon="2.077783000">
        <ele>976.00000</ele>
        <time>2010-01-01T00:14:33Z</time>
      </trkpt>
      <trkpt lat="42.24081800" lon="2.077771000">
        <ele>975.00000</ele>
        <time>2010-01-01T00:14:37Z</time>
      </trkpt>
      <trkpt lat="42.24091700" lon="2.077741000">
        <ele>974.00000</ele>
        <time>2010-01-01T00:14:41Z</time>
      </trkpt>
      <trkpt lat="42.24116100" lon="2.077563000">
        <ele>975.00000</ele>
        <time>2010-01-01T00:14:52Z</time>
      </trkpt>
      <trkpt lat="42.24118800" lon="2.077537000">
        <ele>975.00000</ele>
        <time>2010-01-01T00:14:54Z</time>
      </trkpt>
      <trkpt lat="42.24136400" lon="2.077559000">
        <ele>971.00000</ele>
        <time>2010-01-01T00:15:01Z</time>
      </trkpt>
      <trkpt lat="42.24140000" lon="2.077589000">
        <ele>970.00000</ele>
        <time>2010-01-01T00:15:02Z</time>
      </trkpt>
      <trkpt lat="42.24164500" lon="2.077756000">
        <ele>967.00000</ele>
        <time>2010-01-01T00:15:13Z</time>
      </trkpt>
      <trkpt lat="42.24192200" lon="2.077708000">
        <ele>970.00000</ele>
        <time>2010-01-01T00:15:25Z</time>
      </trkpt>
      <trkpt lat="42.24207700" lon="2.077803000">
        <ele>970.00000</ele>
        <time>2010-01-01T00:15:31Z</time>
      </trkpt>
      <trkpt lat="42.24217200" lon="2.077961000">
        <ele>966.00000</ele>
        <time>2010-01-01T00:15:37Z</time>
      </trkpt>
      <trkpt lat="42.24226000" lon="2.078284000">
        <ele>956.00000</ele>
        <time>2010-01-01T00:15:48Z</time>
      </trkpt>
      <trkpt lat="42.24241900" lon="2.078488000">
        <ele>950.00000</ele>
        <time>2010-01-01T00:15:56Z</time>
      </trkpt>
      <trkpt lat="42.24290100" lon="2.078634000">
        <ele>949.00000</ele>
        <time>2010-01-01T00:16:16Z</time>
      </trkpt>
      <trkpt lat="42.24320500" lon="2.078662000">
        <ele>948.00000</ele>
        <time>2010-01-01T00:16:28Z</time>
      </trkpt>
      <trkpt lat="42.24354000" lon="2.078716000">
        <ele>946.00000</ele>
        <time>2010-01-01T00:16:42Z</time>
      </trkpt>
      <trkpt lat="42.24360200" lon="2.078735000">
        <ele>945.00000</ele>
        <time>2010-01-01T00:16:44Z</time>
      </trkpt>
      <trkpt lat="42.24372000" lon="2.078767000">
        <ele>945.00000</ele>
        <time>2010-01-01T00:16:49Z</time>
      </trkpt>
      <trkpt lat="42.24451900" lon="2.078936000">
        <ele>937.00000</ele>
        <time>2010-01-01T00:17:22Z</time>
      </trkpt>
      <trkpt lat="42.24468000" lon="2.078932000">
        <ele>937.00000</ele>
        <time>2010-01-01T00:17:28Z</time>
      </trkpt>
      <trkpt lat="42.24491400" lon="2.078877000">
        <ele>939.00000</ele>
        <time>2010-01-01T00:17:38Z</time>
      </trkpt>
      <trkpt lat="42.24519600" lon="2.078962000">
        <ele>939.00000</ele>
        <time>2010-01-01T00:17:49Z</time>
      </trkpt>
      <trkpt lat="42.24547800" lon="2.079140000">
        <ele>936.00000</ele>
        <time>2010-01-01T00:18:02Z</time>
      </trkpt>
      <trkpt lat="42.24555500" lon="2.079178000">
        <ele>936.00000</ele>
        <time>2010-01-01T00:18:05Z</time>
      </trkpt>
      <trkpt lat="42.24573600" lon="2.079318000">
        <ele>932.00000</ele>
        <time>2010-01-01T00:18:13Z</time>
      </trkpt>
      <trkpt lat="42.24595300" lon="2.079406000">
        <ele>927.00000</ele>
        <time>2010-01-01T00:18:22Z</time>
      </trkpt>
      <trkpt lat="42.24610400" lon="2.079418000">
        <ele>924.00000</ele>
        <time>2010-01-01T00:18:28Z</time>
      </trkpt>
      <trkpt lat="42.24633500" lon="2.079602000">
        <ele>921.00000</ele>
        <time>2010-01-01T00:18:39Z</time>
      </trkpt>
      <trkpt lat="42.24640600" lon="2.079649000">
        <ele>920.00000</ele>
        <time>2010-01-01T00:18:42Z</time>
      </trkpt>
      <trkpt lat="42.24665300" lon="2.079747000">
        <ele>918.00000</ele>
        <time>2010-01-01T00:18:53Z</time>
      </trkpt>
      <trkpt lat="42.24659600" lon="2.079747000">
        <ele>918.00000</ele>
        <time>2010-01-01T00:18:55Z</time>
      </trkpt>
      <trkpt lat="42.24667900" lon="2.079787000">
        <ele>918.00000</ele>
        <time>2010-01-01T00:18:58Z</time>
      </trkpt>
      <trkpt lat="42.24665500" lon="2.079761000">
        <ele>918.00000</ele>
        <time>2010-01-01T00:19:00Z</time>
      </trkpt>
      <trkpt lat="42.24661300" lon="2.079772000">
        <ele>918.00000</ele>
        <time>2010-01-01T00:19:01Z</time>
      </trkpt>
      <trkpt lat="42.24658200" lon="2.079772000">
        <ele>918.00000</ele>
        <time>2010-01-01T00:19:03Z</time>
      </trkpt>
      <trkpt lat="42.24669500" lon="2.079879000">
        <ele>918.00000</ele>
        <time>2010-01-01T00:19:08Z</time>
      </trkpt>
      <trkpt lat="42.24675800" lon="2.080001000">
        <ele>918.00000</ele>
        <time>2010-01-01T00:19:13Z</time>
      </trkpt>
      <trkpt lat="42.24685700" lon="2.080118000">
        <ele>915.00000</ele>
        <time>2010-01-01T00:19:18Z</time>
      </trkpt>
      <trkpt lat="42.24689500" lon="2.080165000">
        <ele>915.00000</ele>
        <time>2010-01-01T00:19:20Z</time>
      </trkpt>
      <trkpt lat="42.24699200" lon="2.080379000">
        <ele>912.00000</ele>
        <time>2010-01-01T00:19:27Z</time>
      </trkpt>
      <trkpt lat="42.24702100" lon="2.080460000">
        <ele>911.00000</ele>
        <time>2010-01-01T00:19:30Z</time>
      </trkpt>
      <trkpt lat="42.24724100" lon="2.080750000">
        <ele>908.00000</ele>
        <time>2010-01-01T00:19:42Z</time>
      </trkpt>
      <trkpt lat="42.24736100" lon="2.080866000">
        <ele>907.00000</ele>
        <time>2010-01-01T00:19:48Z</time>
      </trkpt>
      <trkpt lat="42.24751200" lon="2.081158000">
        <ele>906.00000</ele>
        <time>2010-01-01T00:19:59Z</time>
      </trkpt>
      <trkpt lat="42.24766300" lon="2.081360000">
        <ele>903.00000</ele>
        <time>2010-01-01T00:20:07Z</time>
      </trkpt>
      <trkpt lat="42.24773900" lon="2.081405000">
        <ele>902.00000</ele>
        <time>2010-01-01T00:20:11Z</time>
      </trkpt>
      <trkpt lat="42.24782100" lon="2.081457000">
        <ele>901.00000</ele>
        <time>2010-01-01T00:20:14Z</time>
      </trkpt>
      <trkpt lat="42.24802400" lon="2.081640000">
        <ele>901.00000</ele>
        <time>2010-01-01T00:20:24Z</time>
      </trkpt>
      <trkpt lat="42.24810100" lon="2.081759000">
        <ele>901.00000</ele>
        <time>2010-01-01T00:20:29Z</time>
      </trkpt>
      <trkpt lat="42.24822700" lon="2.081972000">
        <ele>900.00000</ele>
        <time>2010-01-01T00:20:37Z</time>
      </trkpt>
      <trkpt lat="42.24848300" lon="2.082311000">
        <ele>900.00000</ele>
        <time>2010-01-01T00:20:51Z</time>
      </trkpt>
      <trkpt lat="42.24853600" lon="2.082529000">
        <ele>900.00000</ele>
        <time>2010-01-01T00:20:58Z</time>
      </trkpt>
      <trkpt lat="42.24854400" lon="2.082663000">
        <ele>900.00000</ele>
        <time>2010-01-01T00:21:02Z</time>
      </trkpt>
      <trkpt lat="42.24860400" lon="2.082953000">
        <ele>901.00000</ele>
        <time>2010-01-01T00:21:11Z</time>
      </trkpt>
      <trkpt lat="42.24858100" lon="2.083156000">
        <ele>901.00000</ele>
        <time>2010-01-01T00:21:17Z</time>
      </trkpt>
      <trkpt lat="42.24847200" lon="2.083205000">
        <ele>899.00000</ele>
        <time>2010-01-01T00:21:21Z</time>
      </trkpt>
      <trkpt lat="42.24838700" lon="2.083350000">
        <ele>898.00000</ele>
        <time>2010-01-01T00:21:27Z</time>
      </trkpt>
      <trkpt lat="42.24843900" lon="2.083652000">
        <ele>899.00000</ele>
        <time>2010-01-01T00:21:36Z</time>
      </trkpt>
      <trkpt lat="42.24845000" lon="2.083689000">
        <ele>900.00000</ele>
        <time>2010-01-01T00:21:37Z</time>
      </trkpt>
      <trkpt lat="42.24849500" lon="2.084101000">
        <ele>903.00000</ele>
        <time>2010-01-01T00:21:50Z</time>
      </trkpt>
      <trkpt lat="42.24840300" lon="2.084421000">
        <ele>904.00000</ele>
        <time>2010-01-01T00:22:00Z</time>
      </trkpt>
      <trkpt lat="42.24826300" lon="2.084728000">
        <ele>906.00000</ele>
        <time>2010-01-01T00:22:10Z</time>
      </trkpt>
      <trkpt lat="42.24794100" lon="2.085281000">
        <ele>907.00000</ele>
        <time>2010-01-01T00:22:31Z</time>
      </trkpt>
      <trkpt lat="42.24782700" lon="2.086028000">
        <ele>903.00000</ele>
        <time>2010-01-01T00:22:54Z</time>
      </trkpt>
      <trkpt lat="42.24787800" lon="2.086261000">
        <ele>905.00000</ele>
        <time>2010-01-01T00:23:01Z</time>
      </trkpt>
      <trkpt lat="42.24832600" lon="2.086970000">
        <ele>915.00000</ele>
        <time>2010-01-01T00:23:29Z</time>
      </trkpt>
      <trkpt lat="42.24827100" lon="2.087837000">
        <ele>915.00000</ele>
        <time>2010-01-01T00:23:55Z</time>
      </trkpt>
      <trkpt lat="42.24792300" lon="2.088391000">
        <ele>912.00000</ele>
        <time>2010-01-01T00:24:16Z</time>
      </trkpt>
      <trkpt lat="42.24791300" lon="2.088746000">
        <ele>910.00000</ele>
        <time>2010-01-01T00:24:27Z</time>
      </trkpt>
      <trkpt lat="42.24802300" lon="2.088945000">
        <ele>910.00000</ele>
        <time>2010-01-01T00:24:34Z</time>
      </trkpt>
      <trkpt lat="42.24833100" lon="2.089566000">
        <ele>911.00000</ele>
        <time>2010-01-01T00:24:56Z</time>
      </trkpt>
      <trkpt lat="42.24890600" lon="2.090300000">
        <ele>907.00000</ele>
        <time>2010-01-01T00:25:28Z</time>
      </trkpt>
      <trkpt lat="42.24920600" lon="2.090493000">
        <ele>910.00000</ele>
        <time>2010-01-01T00:25:41Z</time>
      </trkpt>
      <trkpt lat="42.24928700" lon="2.090812000">
        <ele>914.00000</ele>
        <time>2010-01-01T00:25:51Z</time>
      </trkpt>
      <trkpt lat="42.24877700" lon="2.090861000">
        <ele>914.00000</ele>
        <time>2010-01-01T00:26:12Z</time>
      </trkpt>
      <trkpt lat="42.24829200" lon="2.090929000">
        <ele>913.00000</ele>
        <time>2010-01-01T00:26:31Z</time>
      </trkpt>
      <trkpt lat="42.24828900" lon="2.091262000">
        <ele>916.00000</ele>
        <time>2010-01-01T00:26:41Z</time>
      </trkpt>
      <trkpt lat="42.24830300" lon="2.091155000">
        <ele>916.00000</ele>
        <time>2010-01-01T00:26:44Z</time>
      </trkpt>
      <trkpt lat="42.24832100" lon="2.091185000">
        <ele>916.00000</ele>
        <time>2010-01-01T00:26:45Z</time>
      </trkpt>
      <trkpt lat="42.24835600" lon="2.091740000">
        <ele>915.00000</ele>
        <time>2010-01-01T00:27:02Z</time>
      </trkpt>
      <trkpt lat="42.24824700" lon="2.091933000">
        <ele>911.00000</ele>
        <time>2010-01-01T00:27:09Z</time>
      </trkpt>
      <trkpt lat="42.24812000" lon="2.092145000">
        <ele>908.00000</ele>
        <time>2010-01-01T00:27:17Z</time>
      </trkpt>
      <trkpt lat="42.24799300" lon="2.092419000">
        <ele>905.00000</ele>
        <time>2010-01-01T00:27:27Z</time>
      </trkpt>
      <trkpt lat="42.24794300" lon="2.092559000">
        <ele>905.00000</ele>
        <time>2010-01-01T00:27:31Z</time>
      </trkpt>
      <trkpt lat="42.24784700" lon="2.092831000">
        <ele>902.00000</ele>
        <time>2010-01-01T00:27:40Z</time>
      </trkpt>
      <trkpt lat="42.24777200" lon="2.092836000">
        <ele>900.00000</ele>
        <time>2010-01-01T00:27:43Z</time>
      </trkpt>
      <trkpt lat="42.24776200" lon="2.092841000">
        <ele>900.00000</ele>
        <time>2010-01-01T00:27:44Z</time>
      </trkpt>
      <trkpt lat="42.24776500" lon="2.092982000">
        <ele>898.00000</ele>
        <time>2010-01-01T00:27:48Z</time>
      </trkpt>
      <trkpt lat="42.24752500" lon="2.092624000">
        <ele>895.00000</ele>
        <time>2010-01-01T00:28:02Z</time>
      </trkpt>
      <trkpt lat="42.24749200" lon="2.092539000">
        <ele>895.00000</ele>
        <time>2010-01-01T00:28:05Z</time>
      </trkpt>
      <trkpt lat="42.24741900" lon="2.092122000">
        <ele>891.00000</ele>
        <time>2010-01-01T00:28:18Z</time>
      </trkpt>
      <trkpt lat="42.24740900" lon="2.092028000">
        <ele>890.00000</ele>
        <time>2010-01-01T00:28:20Z</time>
      </trkpt>
      <trkpt lat="42.24736700" lon="2.091774000">
        <ele>890.00000</ele>
        <time>2010-01-01T00:28:28Z</time>
      </trkpt>
      <trkpt lat="42.24725700" lon="2.091536000">
        <ele>891.00000</ele>
        <time>2010-01-01T00:28:36Z</time>
      </trkpt>
      <trkpt lat="42.24709000" lon="2.091415000">
        <ele>890.00000</ele>
        <time>2010-01-01T00:28:44Z</time>
      </trkpt>
      <trkpt lat="42.24679200" lon="2.091136000">
        <ele>886.00000</ele>
        <time>2010-01-01T00:28:59Z</time>
      </trkpt>
      <trkpt lat="42.24665000" lon="2.090593000">
        <ele>881.00000</ele>
        <time>2010-01-01T00:29:16Z</time>
      </trkpt>
      <trkpt lat="42.24668600" lon="2.090374000">
        <ele>881.00000</ele>
        <time>2010-01-01T00:29:22Z</time>
      </trkpt>
      <trkpt lat="42.24678500" lon="2.089837000">
        <ele>883.00000</ele>
        <time>2010-01-01T00:29:39Z</time>
      </trkpt>
      <trkpt lat="42.24680900" lon="2.089665000">
        <ele>883.00000</ele>
        <time>2010-01-01T00:29:44Z</time>
      </trkpt>
      <trkpt lat="42.24680300" lon="2.089511000">
        <ele>883.00000</ele>
        <time>2010-01-01T00:29:48Z</time>
      </trkpt>
      <trkpt lat="42.24647400" lon="2.089527000">
        <ele>878.00000</ele>
        <time>2010-01-01T00:30:02Z</time>
      </trkpt>
      <trkpt lat="42.24645400" lon="2.089601000">
        <ele>877.00000</ele>
        <time>2010-01-01T00:30:04Z</time>
      </trkpt>
      <trkpt lat="42.24625400" lon="2.090186000">
        <ele>875.00000</ele>
        <time>2010-01-01T00:30:23Z</time>
      </trkpt>
      <trkpt lat="42.24612200" lon="2.090446000">
        <ele>873.00000</ele>
        <time>2010-01-01T00:30:32Z</time>
      </trkpt>
      <trkpt lat="42.24601300" lon="2.091139000">
        <ele>876.00000</ele>
        <time>2010-01-01T00:30:53Z</time>
      </trkpt>
      <trkpt lat="42.24609100" lon="2.091688000">
        <ele>878.00000</ele>
        <time>2010-01-01T00:31:10Z</time>
      </trkpt>
      <trkpt lat="42.24602000" lon="2.091967000">
        <ele>880.00000</ele>
        <time>2010-01-01T00:31:19Z</time>
      </trkpt>
      <trkpt lat="42.24552000" lon="2.091822000">
        <ele>886.00000</ele>
        <time>2010-01-01T00:31:39Z</time>
      </trkpt>
      <trkpt lat="42.24537800" lon="2.092361000">
        <ele>885.00000</ele>
        <time>2010-01-01T00:31:56Z</time>
      </trkpt>
      <trkpt lat="42.24527300" lon="2.093036000">
        <ele>885.00000</ele>
        <time>2010-01-01T00:32:17Z</time>
      </trkpt>
      <trkpt lat="42.24514600" lon="2.093926000">
        <ele>885.00000</ele>
        <time>2010-01-01T00:32:43Z</time>
      </trkpt>
      <trkpt lat="42.24506500" lon="2.094863000">
        <ele>890.00000</ele>
        <time>2010-01-01T00:33:11Z</time>
      </trkpt>
      <trkpt lat="42.24515600" lon="2.095800000">
        <ele>888.00000</ele>
        <time>2010-01-01T00:33:39Z</time>
      </trkpt>
      <trkpt lat="42.24518300" lon="2.096031000">
        <ele>885.00000</ele>
        <time>2010-01-01T00:33:46Z</time>
      </trkpt>
      <trkpt lat="42.24521700" lon="2.096087000">
        <ele>884.00000</ele>
        <time>2010-01-01T00:33:48Z</time>
      </trkpt>
      <trkpt lat="42.24523900" lon="2.096165000">
        <ele>883.00000</ele>
        <time>2010-01-01T00:33:51Z</time>
      </trkpt>
      <trkpt lat="42.24523500" lon="2.096669000">
        <ele>882.00000</ele>
        <time>2010-01-01T00:34:06Z</time>
      </trkpt>
      <trkpt lat="42.24543300" lon="2.097258000">
        <ele>877.00000</ele>
        <time>2010-01-01T00:34:25Z</time>
      </trkpt>
      <trkpt lat="42.24549800" lon="2.097510000">
        <ele>875.00000</ele>
        <time>2010-01-01T00:34:33Z</time>
      </trkpt>
      <trkpt lat="42.24543800" lon="2.097762000">
        <ele>873.00000</ele>
        <time>2010-01-01T00:34:41Z</time>
      </trkpt>
      <trkpt lat="42.24532600" lon="2.097857000">
        <ele>874.00000</ele>
        <time>2010-01-01T00:34:46Z</time>
      </trkpt>
      <trkpt lat="42.24522700" lon="2.098084000">
        <ele>875.00000</ele>
        <time>2010-01-01T00:34:54Z</time>
      </trkpt>
      <trkpt lat="42.24516800" lon="2.098254000">
        <ele>876.00000</ele>
        <time>2010-01-01T00:34:59Z</time>
      </trkpt>
      <trkpt lat="42.24530400" lon="2.098649000">
        <ele>873.00000</ele>
        <time>2010-01-01T00:35:12Z</time>
      </trkpt>
      <trkpt lat="42.24531000" lon="2.098668000">
        <ele>873.00000</ele>
        <time>2010-01-01T00:35:13Z</time>
      </trkpt>
      <trkpt lat="42.24532400" lon="2.098741000">
        <ele>873.00000</ele>
        <time>2010-01-01T00:35:15Z</time>
      </trkpt>
      <trkpt lat="42.24531400" lon="2.098972000">
        <ele>874.00000</ele>
        <time>2010-01-01T00:35:22Z</time>
      </trkpt>
      <trkpt lat="42.24530100" lon="2.099151000">
        <ele>875.00000</ele>
        <time>2010-01-01T00:35:27Z</time>
      </trkpt>
      <trkpt lat="42.24524300" lon="2.099185000">
        <ele>876.00000</ele>
        <time>2010-01-01T00:35:30Z</time>
      </trkpt>
      <trkpt lat="42.24521600" lon="2.099226000">
        <ele>877.00000</ele>
        <time>2010-01-01T00:35:32Z</time>
      </trkpt>
      <trkpt lat="42.24515800" lon="2.099276000">
        <ele>878.00000</ele>
        <time>2010-01-01T00:35:34Z</time>
      </trkpt>
      <trkpt lat="42.24490700" lon="2.099746000">
        <ele>886.00000</ele>
        <time>2010-01-01T00:35:51Z</time>
      </trkpt>
      <trkpt lat="42.24463400" lon="2.100312000">
        <ele>886.00000</ele>
        <time>2010-01-01T00:36:11Z</time>
      </trkpt>
      <trkpt lat="42.24432600" lon="2.100942000">
        <ele>884.00000</ele>
        <time>2010-01-01T00:36:34Z</time>
      </trkpt>
      <trkpt lat="42.24415400" lon="2.101349000">
        <ele>883.00000</ele>
        <time>2010-01-01T00:36:48Z</time>
      </trkpt>
      <trkpt lat="42.24402700" lon="2.101643000">
        <ele>879.00000</ele>
        <time>2010-01-01T00:36:58Z</time>
      </trkpt>
      <trkpt lat="42.24388800" lon="2.101920000">
        <ele>876.00000</ele>
        <time>2010-01-01T00:37:08Z</time>
      </trkpt>
      <trkpt lat="42.24378700" lon="2.102128000">
        <ele>874.00000</ele>
        <time>2010-01-01T00:37:15Z</time>
      </trkpt>
      <trkpt lat="42.24370900" lon="2.102240000">
        <ele>874.00000</ele>
        <time>2010-01-01T00:37:20Z</time>
      </trkpt>
      <trkpt lat="42.24362400" lon="2.102310000">
        <ele>875.00000</ele>
        <time>2010-01-01T00:37:24Z</time>
      </trkpt>
      <trkpt lat="42.24353700" lon="2.102528000">
        <ele>877.00000</ele>
        <time>2010-01-01T00:37:31Z</time>
      </trkpt>
      <trkpt lat="42.24355800" lon="2.102653000">
        <ele>876.00000</ele>
        <time>2010-01-01T00:37:35Z</time>
      </trkpt>
      <trkpt lat="42.24344400" lon="2.103411000">
        <ele>868.00000</ele>
        <time>2010-01-01T00:37:58Z</time>
      </trkpt>
      <trkpt lat="42.24328700" lon="2.103726000">
        <ele>865.00000</ele>
        <time>2010-01-01T00:38:09Z</time>
      </trkpt>
      <trkpt lat="42.24310900" lon="2.103978000">
        <ele>868.00000</ele>
        <time>2010-01-01T00:38:19Z</time>
      </trkpt>
      <trkpt lat="42.24303500" lon="2.104396000">
        <ele>859.00000</ele>
        <time>2010-01-01T00:38:32Z</time>
      </trkpt>
      <trkpt lat="42.24290200" lon="2.105057000">
        <ele>851.00000</ele>
        <time>2010-01-01T00:38:52Z</time>
      </trkpt>
      <trkpt lat="42.24273100" lon="2.105270000">
        <ele>854.00000</ele>
        <time>2010-01-01T00:39:02Z</time>
      </trkpt>
      <trkpt lat="42.24256700" lon="2.105296000">
        <ele>858.00000</ele>
        <time>2010-01-01T00:39:08Z</time>
      </trkpt>
      <trkpt lat="42.24223100" lon="2.106186000">
        <ele>866.00000</ele>
        <time>2010-01-01T00:39:38Z</time>
      </trkpt>
      <trkpt lat="42.24197200" lon="2.107178000">
        <ele>866.00000</ele>
        <time>2010-01-01T00:40:09Z</time>
      </trkpt>
      <trkpt lat="42.24194500" lon="2.107325000">
        <ele>866.00000</ele>
        <time>2010-01-01T00:40:14Z</time>
      </trkpt>
      <trkpt lat="42.24190100" lon="2.107570000">
        <ele>864.00000</ele>
        <time>2010-01-01T00:40:21Z</time>
      </trkpt>
      <trkpt lat="42.24186100" lon="2.107962000">
        <ele>858.00000</ele>
        <time>2010-01-01T00:40:33Z</time>
      </trkpt>
      <trkpt lat="42.24181600" lon="2.108301000">
        <ele>854.00000</ele>
        <time>2010-01-01T00:40:43Z</time>
      </trkpt>
      <trkpt lat="42.24165100" lon="2.108867000">
        <ele>853.00000</ele>
        <time>2010-01-01T00:41:01Z</time>
      </trkpt>
      <trkpt lat="42.24143700" lon="2.109364000">
        <ele>855.00000</ele>
        <time>2010-01-01T00:41:18Z</time>
      </trkpt>
      <trkpt lat="42.24137700" lon="2.109729000">
        <ele>850.00000</ele>
        <time>2010-01-01T00:41:29Z</time>
      </trkpt>
      <trkpt lat="42.24120800" lon="2.109995000">
        <ele>852.00000</ele>
        <time>2010-01-01T00:41:39Z</time>
      </trkpt>
      <trkpt lat="42.24121000" lon="2.110090000">
        <ele>852.00000</ele>
        <time>2010-01-01T00:41:42Z</time>
      </trkpt>
      <trkpt lat="42.24120300" lon="2.110106000">
        <ele>852.00000</ele>
        <time>2010-01-01T00:41:43Z</time>
      </trkpt>
      <trkpt lat="42.24119900" lon="2.110175000">
        <ele>851.00000</ele>
        <time>2010-01-01T00:41:45Z</time>
      </trkpt>
      <trkpt lat="42.24126800" lon="2.110655000">
        <ele>847.00000</ele>
        <time>2010-01-01T00:41:59Z</time>
      </trkpt>
      <trkpt lat="42.24125800" lon="2.110783000">
        <ele>846.00000</ele>
        <time>2010-01-01T00:42:03Z</time>
      </trkpt>
      <trkpt lat="42.24123300" lon="2.110985000">
        <ele>845.00000</ele>
        <time>2010-01-01T00:42:09Z</time>
      </trkpt>
      <trkpt lat="42.24120800" lon="2.111088000">
        <ele>844.00000</ele>
        <time>2010-01-01T00:42:12Z</time>
      </trkpt>
      <trkpt lat="42.24104200" lon="2.111492000">
        <ele>844.00000</ele>
        <time>2010-01-01T00:42:26Z</time>
      </trkpt>
      <trkpt lat="42.24103300" lon="2.111780000">
        <ele>840.00000</ele>
        <time>2010-01-01T00:42:35Z</time>
      </trkpt>
      <trkpt lat="42.24105900" lon="2.112156000">
        <ele>835.00000</ele>
        <time>2010-01-01T00:42:46Z</time>
      </trkpt>
      <trkpt lat="42.24086700" lon="2.112534000">
        <ele>835.00000</ele>
        <time>2010-01-01T00:42:59Z</time>
      </trkpt>
      <trkpt lat="42.24071100" lon="2.112708000">
        <ele>835.00000</ele>
        <time>2010-01-01T00:43:08Z</time>
      </trkpt>
      <trkpt lat="42.24026900" lon="2.113287000">
        <ele>834.00000</ele>
        <time>2010-01-01T00:43:32Z</time>
      </trkpt>
      <trkpt lat="42.24018500" lon="2.114068000">
        <ele>828.00000</ele>
        <time>2010-01-01T00:43:56Z</time>
      </trkpt>
      <trkpt lat="42.24013900" lon="2.114322000">
        <ele>826.00000</ele>
        <time>2010-01-01T00:44:03Z</time>
      </trkpt>
      <trkpt lat="42.24011700" lon="2.114408000">
        <ele>825.00000</ele>
        <time>2010-01-01T00:44:06Z</time>
      </trkpt>
      <trkpt lat="42.24009100" lon="2.114495000">
        <ele>824.00000</ele>
        <time>2010-01-01T00:44:09Z</time>
      </trkpt>
      <trkpt lat="42.23996100" lon="2.114722000">
        <ele>823.00000</ele>
        <time>2010-01-01T00:44:17Z</time>
      </trkpt>
      <trkpt lat="42.23970200" lon="2.114849000">
        <ele>823.00000</ele>
        <time>2010-01-01T00:44:28Z</time>
      </trkpt>
      <trkpt lat="42.23956000" lon="2.114806000">
        <ele>823.00000</ele>
        <time>2010-01-01T00:44:34Z</time>
      </trkpt>
      <trkpt lat="42.23913900" lon="2.114772000">
        <ele>822.00000</ele>
        <time>2010-01-01T00:44:51Z</time>
      </trkpt>
      <trkpt lat="42.23896400" lon="2.115042000">
        <ele>821.00000</ele>
        <time>2010-01-01T00:45:02Z</time>
      </trkpt>
      <trkpt lat="42.23903300" lon="2.115626000">
        <ele>821.00000</ele>
        <time>2010-01-01T00:45:19Z</time>
      </trkpt>
      <trkpt lat="42.23907700" lon="2.116255000">
        <ele>827.00000</ele>
        <time>2010-01-01T00:45:38Z</time>
      </trkpt>
      <trkpt lat="42.23864400" lon="2.116736000">
        <ele>826.00000</ele>
        <time>2010-01-01T00:46:00Z</time>
      </trkpt>
      <trkpt lat="42.23830000" lon="2.117437000">
        <ele>826.00000</ele>
        <time>2010-01-01T00:46:25Z</time>
      </trkpt>
      <trkpt lat="42.23830100" lon="2.117789000">
        <ele>829.00000</ele>
        <time>2010-01-01T00:46:36Z</time>
      </trkpt>
      <trkpt lat="42.23839400" lon="2.118019000">
        <ele>830.00000</ele>
        <time>2010-01-01T00:46:44Z</time>
      </trkpt>
      <trkpt lat="42.23856400" lon="2.118276000">
        <ele>830.00000</ele>
        <time>2010-01-01T00:46:54Z</time>
      </trkpt>
      <trkpt lat="42.23839900" lon="2.118848000">
        <ele>829.00000</ele>
        <time>2010-01-01T00:47:12Z</time>
      </trkpt>
      <trkpt lat="42.23834700" lon="2.118862000">
        <ele>829.00000</ele>
        <time>2010-01-01T00:47:14Z</time>
      </trkpt>
      <trkpt lat="42.23733100" lon="2.118991000">
        <ele>828.00000</ele>
        <time>2010-01-01T00:47:55Z</time>
      </trkpt>
      <trkpt lat="42.23722300" lon="2.119034000">
        <ele>828.00000</ele>
        <time>2010-01-01T00:47:59Z</time>
      </trkpt>
      <trkpt lat="42.23652600" lon="2.119584000">
        <ele>826.00000</ele>
        <time>2010-01-01T00:48:32Z</time>
      </trkpt>
      <trkpt lat="42.23637200" lon="2.119818000">
        <ele>827.00000</ele>
        <time>2010-01-01T00:48:41Z</time>
      </trkpt>
      <trkpt lat="42.23600200" lon="2.121086000">
        <ele>831.00000</ele>
        <time>2010-01-01T00:49:21Z</time>
      </trkpt>
      <trkpt lat="42.23547100" lon="2.122582000">
        <ele>826.00000</ele>
        <time>2010-01-01T00:50:11Z</time>
      </trkpt>
      <trkpt lat="42.23517700" lon="2.122966000">
        <ele>824.00000</ele>
        <time>2010-01-01T00:50:27Z</time>
      </trkpt>
      <trkpt lat="42.23487800" lon="2.123330000">
        <ele>820.00000</ele>
        <time>2010-01-01T00:50:43Z</time>
      </trkpt>
      <trkpt lat="42.23437700" lon="2.123937000">
        <ele>816.00000</ele>
        <time>2010-01-01T00:51:10Z</time>
      </trkpt>
      <trkpt lat="42.23371500" lon="2.124760000">
        <ele>814.00000</ele>
        <time>2010-01-01T00:51:46Z</time>
      </trkpt>
      <trkpt lat="42.23294200" lon="2.126090000">
        <ele>813.00000</ele>
        <time>2010-01-01T00:52:36Z</time>
      </trkpt>
      <trkpt lat="42.23231800" lon="2.127630000">
        <ele>806.00000</ele>
        <time>2010-01-01T00:53:28Z</time>
      </trkpt>
      <trkpt lat="42.23202200" lon="2.127484000">
        <ele>803.00000</ele>
        <time>2010-01-01T00:53:41Z</time>
      </trkpt>
      <trkpt lat="42.23195600" lon="2.127557000">
        <ele>804.00000</ele>
        <time>2010-01-01T00:53:44Z</time>
      </trkpt>
      <trkpt lat="42.23165700" lon="2.128425000">
        <ele>809.00000</ele>
        <time>2010-01-01T00:54:13Z</time>
      </trkpt>
      <trkpt lat="42.23163000" lon="2.128492000">
        <ele>808.00000</ele>
        <time>2010-01-01T00:54:15Z</time>
      </trkpt>
      <trkpt lat="42.23153800" lon="2.128694000">
        <ele>804.00000</ele>
        <time>2010-01-01T00:54:22Z</time>
      </trkpt>
      <trkpt lat="42.23140500" lon="2.128865000">
        <ele>797.00000</ele>
        <time>2010-01-01T00:54:29Z</time>
      </trkpt>
      <trkpt lat="42.23124600" lon="2.129061000">
        <ele>795.00000</ele>
        <time>2010-01-01T00:54:38Z</time>
      </trkpt>
      <trkpt lat="42.23108600" lon="2.129289000">
        <ele>793.00000</ele>
        <time>2010-01-01T00:54:47Z</time>
      </trkpt>
      <trkpt lat="42.23093600" lon="2.129474000">
        <ele>791.00000</ele>
        <time>2010-01-01T00:54:55Z</time>
      </trkpt>
      <trkpt lat="42.23083700" lon="2.129741000">
        <ele>790.00000</ele>
        <time>2010-01-01T00:55:04Z</time>
      </trkpt>
      <trkpt lat="42.23067100" lon="2.130449000">
        <ele>792.00000</ele>
        <time>2010-01-01T00:55:26Z</time>
      </trkpt>
      <trkpt lat="42.23058400" lon="2.130661000">
        <ele>791.00000</ele>
        <time>2010-01-01T00:55:33Z</time>
      </trkpt>
      <trkpt lat="42.23029700" lon="2.131282000">
        <ele>787.00000</ele>
        <time>2010-01-01T00:55:55Z</time>
      </trkpt>
      <trkpt lat="42.23020200" lon="2.131463000">
        <ele>785.00000</ele>
        <time>2010-01-01T00:56:02Z</time>
      </trkpt>
      <trkpt lat="42.23000000" lon="2.131811000">
        <ele>782.00000</ele>
        <time>2010-01-01T00:56:15Z</time>
      </trkpt>
      <trkpt lat="42.22991000" lon="2.131933000">
        <ele>782.00000</ele>
        <time>2010-01-01T00:56:20Z</time>
      </trkpt>
      <trkpt lat="42.22971300" lon="2.132139000">
        <ele>780.00000</ele>
        <time>2010-01-01T00:56:30Z</time>
      </trkpt>
      <trkpt lat="42.22957600" lon="2.132393000">
        <ele>778.00000</ele>
        <time>2010-01-01T00:56:39Z</time>
      </trkpt>
      <trkpt lat="42.22929590" lon="2.132903337">
        <ele>774.00000</ele>
        <time>2010-01-01T00:56:58Z</time>
      </trkpt>
      <trkpt lat="42.22899401" lon="2.133541703">
        <ele>773.00000</ele>
        <time>2010-01-01T00:57:20Z</time>
      </trkpt>
      <trkpt lat="42.22884200" lon="2.133999000">
        <ele>774.00000</ele>
        <time>2010-01-01T00:57:35Z</time>
      </trkpt>
      <trkpt lat="42.22881800" lon="2.134162000">
        <ele>774.00000</ele>
        <time>2010-01-01T00:57:40Z</time>
      </trkpt>
      <trkpt lat="42.22847900" lon="2.134585000">
        <ele>772.00000</ele>
        <time>2010-01-01T00:57:59Z</time>
      </trkpt>
      <trkpt lat="42.22838100" lon="2.134615000">
        <ele>772.00000</ele>
        <time>2010-01-01T00:58:03Z</time>
      </trkpt>
      <trkpt lat="42.22820355" lon="2.134737968">
        <ele>771.00000</ele>
        <time>2010-01-01T00:58:11Z</time>
      </trkpt>
      <trkpt lat="42.22802700" lon="2.134970000">
        <ele>771.00000</ele>
        <time>2010-01-01T00:58:21Z</time>
      </trkpt>
      <trkpt lat="42.22786400" lon="2.135166000">
        <ele>771.00000</ele>
        <time>2010-01-01T00:58:29Z</time>
      </trkpt>
      <trkpt lat="42.22771300" lon="2.135350000">
        <ele>770.00000</ele>
        <time>2010-01-01T00:58:37Z</time>
      </trkpt>
      <trkpt lat="42.22739000" lon="2.135410000">
        <ele>769.00000</ele>
        <time>2010-01-01T00:58:50Z</time>
      </trkpt>
      <trkpt lat="42.22729300" lon="2.135440000">
        <ele>769.00000</ele>
        <time>2010-01-01T00:58:54Z</time>
      </trkpt>
      <trkpt lat="42.22720000" lon="2.135469000">
        <ele>769.00000</ele>
        <time>2010-01-01T00:58:58Z</time>
      </trkpt>
      <trkpt lat="42.22699600" lon="2.136119000">
        <ele>770.00000</ele>
        <time>2010-01-01T00:59:19Z</time>
      </trkpt>
      <trkpt lat="42.22697900" lon="2.136229000">
        <ele>770.00000</ele>
        <time>2010-01-01T00:59:22Z</time>
      </trkpt>
      <trkpt lat="42.22693800" lon="2.136472000">
        <ele>770.00000</ele>
        <time>2010-01-01T00:59:30Z</time>
      </trkpt>
      <trkpt lat="42.22679400" lon="2.136807000">
        <ele>770.00000</ele>
        <time>2010-01-01T00:59:41Z</time>
      </trkpt>
      <trkpt lat="42.22669200" lon="2.137015000">
        <ele>769.00000</ele>
        <time>2010-01-01T00:59:49Z</time>
      </trkpt>
      <trkpt lat="42.22659875" lon="2.137355804">
        <ele>771.00000</ele>
        <time>2010-01-01T01:00:00Z</time>
      </trkpt>
      <trkpt lat="42.22652400" lon="2.137669000">
        <ele>772.00000</ele>
        <time>2010-01-01T01:00:09Z</time>
      </trkpt>
      <trkpt lat="42.22687000" lon="2.138452000">
        <ele>764.00000</ele>
        <time>2010-01-01T01:00:36Z</time>
      </trkpt>
      <trkpt lat="42.22704500" lon="2.138779000">
        <ele>764.00000</ele>
        <time>2010-01-01T01:00:48Z</time>
      </trkpt>
      <trkpt lat="42.22706300" lon="2.138884000">
        <ele>764.00000</ele>
        <time>2010-01-01T01:00:51Z</time>
      </trkpt>
      <trkpt lat="42.22704800" lon="2.139140000">
        <ele>763.00000</ele>
        <time>2010-01-01T01:00:59Z</time>
      </trkpt>
      <trkpt lat="42.22690000" lon="2.139542000">
        <ele>764.00000</ele>
        <time>2010-01-01T01:01:12Z</time>
      </trkpt>
      <trkpt lat="42.22690400" lon="2.139779000">
        <ele>765.00000</ele>
        <time>2010-01-01T01:01:19Z</time>
      </trkpt>
      <trkpt lat="42.22691600" lon="2.139701000">
        <ele>765.00000</ele>
        <time>2010-01-01T01:01:22Z</time>
      </trkpt>
      <trkpt lat="42.22704500" lon="2.140069000">
        <ele>765.00000</ele>
        <time>2010-01-01T01:01:34Z</time>
      </trkpt>
      <trkpt lat="42.22706600" lon="2.140260000">
        <ele>765.00000</ele>
        <time>2010-01-01T01:01:40Z</time>
      </trkpt>
      <trkpt lat="42.22713400" lon="2.140479000">
        <ele>763.00000</ele>
        <time>2010-01-01T01:01:47Z</time>
      </trkpt>
      <trkpt lat="42.22740300" lon="2.141003000">
        <ele>761.00000</ele>
        <time>2010-01-01T01:02:06Z</time>
      </trkpt>
      <trkpt lat="42.22782500" lon="2.141847000">
        <ele>766.00000</ele>
        <time>2010-01-01T01:02:36Z</time>
      </trkpt>
      <trkpt lat="42.22789400" lon="2.142123000">
        <ele>767.00000</ele>
        <time>2010-01-01T01:02:44Z</time>
      </trkpt>
      <trkpt lat="42.22798700" lon="2.142756000">
        <ele>764.00000</ele>
        <time>2010-01-01T01:03:03Z</time>
      </trkpt>
      <trkpt lat="42.22797400" lon="2.142977000">
        <ele>762.00000</ele>
        <time>2010-01-01T01:03:10Z</time>
      </trkpt>
      <trkpt lat="42.22791900" lon="2.143343000">
        <ele>762.00000</ele>
        <time>2010-01-01T01:03:21Z</time>
      </trkpt>
      <trkpt lat="42.22797400" lon="2.143742000">
        <ele>766.00000</ele>
        <time>2010-01-01T01:03:33Z</time>
      </trkpt>
      <trkpt lat="42.22797500" lon="2.143765000">
        <ele>767.00000</ele>
        <time>2010-01-01T01:03:34Z</time>
      </trkpt>
      <trkpt lat="42.22802200" lon="2.143982000">
        <ele>769.00000</ele>
        <time>2010-01-01T01:03:41Z</time>
      </trkpt>
      <trkpt lat="42.22803700" lon="2.144155000">
        <ele>770.00000</ele>
        <time>2010-01-01T01:03:46Z</time>
      </trkpt>
      <trkpt lat="42.22804600" lon="2.144770000">
        <ele>771.00000</ele>
        <time>2010-01-01T01:04:04Z</time>
      </trkpt>
      <trkpt lat="42.22799400" lon="2.145598000">
        <ele>767.00000</ele>
        <time>2010-01-01T01:04:29Z</time>
      </trkpt>
      <trkpt lat="42.22796500" lon="2.145781000">
        <ele>766.00000</ele>
        <time>2010-01-01T01:04:34Z</time>
      </trkpt>
      <trkpt lat="42.22794900" lon="2.146132000">
        <ele>764.00000</ele>
        <time>2010-01-01T01:04:45Z</time>
      </trkpt>
      <trkpt lat="42.22771200" lon="2.146963000">
        <ele>756.00000</ele>
        <time>2010-01-01T01:05:11Z</time>
      </trkpt>
      <trkpt lat="42.22757196" lon="2.147397994">
        <ele>753.00000</ele>
        <time>2010-01-01T01:05:25Z</time>
      </trkpt>
      <trkpt lat="42.22747000" lon="2.147770000">
        <ele>752.00000</ele>
        <time>2010-01-01T01:05:37Z</time>
      </trkpt>
      <trkpt lat="42.22730000" lon="2.148252000">
        <ele>752.00000</ele>
        <time>2010-01-01T01:05:53Z</time>
      </trkpt>
      <trkpt lat="42.22720254" lon="2.148363590">
        <ele>750.00000</ele>
        <time>2010-01-01T01:05:58Z</time>
      </trkpt>
      <trkpt lat="42.22716100" lon="2.148449000">
        <ele>750.00000</ele>
        <time>2010-01-01T01:06:01Z</time>
      </trkpt>
      <trkpt lat="42.22712500" lon="2.148455000">
        <ele>750.00000</ele>
        <time>2010-01-01T01:06:02Z</time>
      </trkpt>
      <trkpt lat="42.22702100" lon="2.148647000">
        <ele>750.00000</ele>
        <time>2010-01-01T01:06:09Z</time>
      </trkpt>
      <trkpt lat="42.22641700" lon="2.150025000">
        <ele>750.00000</ele>
        <time>2010-01-01T01:06:57Z</time>
      </trkpt>
      <trkpt lat="42.22606900" lon="2.150798000">
        <ele>748.00000</ele>
        <time>2010-01-01T01:07:23Z</time>
      </trkpt>
      <trkpt lat="42.22577900" lon="2.151383000">
        <ele>745.00000</ele>
        <time>2010-01-01T01:07:44Z</time>
      </trkpt>
      <trkpt lat="42.22567900" lon="2.151714000">
        <ele>744.00000</ele>
        <time>2010-01-01T01:07:55Z</time>
      </trkpt>
      <trkpt lat="42.22557600" lon="2.151923000">
        <ele>745.00000</ele>
        <time>2010-01-01T01:08:02Z</time>
      </trkpt>
      <trkpt lat="42.22547000" lon="2.152125000">
        <ele>746.00000</ele>
        <time>2010-01-01T01:08:10Z</time>
      </trkpt>
      <trkpt lat="42.22516600" lon="2.152927000">
        <ele>745.00000</ele>
        <time>2010-01-01T01:08:36Z</time>
      </trkpt>
      <trkpt lat="42.22466000" lon="2.153667000">
        <ele>742.00000</ele>
        <time>2010-01-01T01:09:06Z</time>
      </trkpt>
      <trkpt lat="42.22424300" lon="2.154369000">
        <ele>739.00000</ele>
        <time>2010-01-01T01:09:33Z</time>
      </trkpt>
      <trkpt lat="42.22417100" lon="2.154572000">
        <ele>739.00000</ele>
        <time>2010-01-01T01:09:40Z</time>
      </trkpt>
      <trkpt lat="42.22405500" lon="2.154781000">
        <ele>739.00000</ele>
        <time>2010-01-01T01:09:47Z</time>
      </trkpt>
      <trkpt lat="42.22394000" lon="2.154934000">
        <ele>739.00000</ele>
        <time>2010-01-01T01:09:54Z</time>
      </trkpt>
      <trkpt lat="42.22317400" lon="2.156335000">
        <ele>742.00000</ele>
        <time>2010-01-01T01:10:45Z</time>
      </trkpt>
      <trkpt lat="42.22304400" lon="2.156571000">
        <ele>743.00000</ele>
        <time>2010-01-01T01:10:54Z</time>
      </trkpt>
      <trkpt lat="42.22299200" lon="2.156895000">
        <ele>742.00000</ele>
        <time>2010-01-01T01:11:04Z</time>
      </trkpt>
      <trkpt lat="42.22302600" lon="2.157101000">
        <ele>739.00000</ele>
        <time>2010-01-01T01:11:10Z</time>
      </trkpt>
      <trkpt lat="42.22304300" lon="2.157709000">
        <ele>735.00000</ele>
        <time>2010-01-01T01:11:28Z</time>
      </trkpt>
      <trkpt lat="42.22331800" lon="2.158824000">
        <ele>732.00000</ele>
        <time>2010-01-01T01:12:03Z</time>
      </trkpt>
      <trkpt lat="42.22334500" lon="2.158933000">
        <ele>732.00000</ele>
        <time>2010-01-01T01:12:07Z</time>
      </trkpt>
      <trkpt lat="42.22341700" lon="2.159123000">
        <ele>732.00000</ele>
        <time>2010-01-01T01:12:13Z</time>
      </trkpt>
      <trkpt lat="42.22358700" lon="2.159626000">
        <ele>733.00000</ele>
        <time>2010-01-01T01:12:29Z</time>
      </trkpt>
      <trkpt lat="42.22359000" lon="2.159786000">
        <ele>733.00000</ele>
        <time>2010-01-01T01:12:34Z</time>
      </trkpt>
      <trkpt lat="42.22339600" lon="2.160440000">
        <ele>734.00000</ele>
        <time>2010-01-01T01:12:55Z</time>
      </trkpt>
      <trkpt lat="42.22326600" lon="2.160601000">
        <ele>733.00000</ele>
        <time>2010-01-01T01:13:02Z</time>
      </trkpt>
      <trkpt lat="42.22318800" lon="2.160647000">
        <ele>733.00000</ele>
        <time>2010-01-01T01:13:05Z</time>
      </trkpt>
      <trkpt lat="42.22305800" lon="2.160791000">
        <ele>733.00000</ele>
        <time>2010-01-01T01:13:12Z</time>
      </trkpt>
      <trkpt lat="42.22290042" lon="2.161002159">
        <ele>734.00000</ele>
        <time>2010-01-01T01:13:21Z</time>
      </trkpt>
      <trkpt lat="42.22278919" lon="2.161248922">
        <ele>736.00000</ele>
        <time>2010-01-01T01:13:30Z</time>
      </trkpt>
      <trkpt lat="42.22282892" lon="2.162396907">
        <ele>735.00000</ele>
        <time>2010-01-01T01:14:04Z</time>
      </trkpt>
      <trkpt lat="42.22292426" lon="2.163319587">
        <ele>737.00000</ele>
        <time>2010-01-01T01:14:31Z</time>
      </trkpt>
      <trkpt lat="42.22289248" lon="2.164349555">
        <ele>741.00000</ele>
        <time>2010-01-01T01:15:02Z</time>
      </trkpt>
      <trkpt lat="42.22273358" lon="2.164950370">
        <ele>740.00000</ele>
        <time>2010-01-01T01:15:21Z</time>
      </trkpt>
      <trkpt lat="42.22294015" lon="2.164242267">
        <ele>742.00000</ele>
        <time>2010-01-01T00:00:00Z</time>
      </trkpt>
      <trkpt lat="42.22282097" lon="2.164757251">
        <ele>741.00000</ele>
        <time>2010-01-01T00:00:15Z</time>
      </trkpt>
      <trkpt lat="42.22270179" lon="2.164961099">
        <ele>740.00000</ele>
        <time>2010-01-01T00:00:23Z</time>
      </trkpt>
      <trkpt lat="42.22251200" lon="2.164981000">
        <ele>738.00000</ele>
        <time>2010-01-01T00:00:31Z</time>
      </trkpt>
      <trkpt lat="42.22232100" lon="2.164998000">
        <ele>738.00000</ele>
        <time>2010-01-01T00:00:38Z</time>
      </trkpt>
      <trkpt lat="42.22213900" lon="2.165018000">
        <ele>737.00000</ele>
        <time>2010-01-01T00:00:46Z</time>
      </trkpt>
      <trkpt lat="42.22195000" lon="2.165047000">
        <ele>737.00000</ele>
        <time>2010-01-01T00:00:53Z</time>
      </trkpt>
      <trkpt lat="42.22175800" lon="2.165077000">
        <ele>737.00000</ele>
        <time>2010-01-01T00:01:01Z</time>
      </trkpt>
      <trkpt lat="42.22157100" lon="2.165124000">
        <ele>736.00000</ele>
        <time>2010-01-01T00:01:09Z</time>
      </trkpt>
      <trkpt lat="42.22139000" lon="2.165169000">
        <ele>736.00000</ele>
        <time>2010-01-01T00:01:16Z</time>
      </trkpt>
      <trkpt lat="42.22121100" lon="2.165208000">
        <ele>733.00000</ele>
        <time>2010-01-01T00:01:23Z</time>
      </trkpt>
      <trkpt lat="42.22102100" lon="2.165268000">
        <ele>732.00000</ele>
        <time>2010-01-01T00:01:31Z</time>
      </trkpt>
      <trkpt lat="42.22084500" lon="2.165366000">
        <ele>731.00000</ele>
        <time>2010-01-01T00:01:39Z</time>
      </trkpt>
      <trkpt lat="42.22068700" lon="2.165493000">
        <ele>731.00000</ele>
        <time>2010-01-01T00:01:46Z</time>
      </trkpt>
      <trkpt lat="42.22050100" lon="2.165524000">
        <ele>731.00000</ele>
        <time>2010-01-01T00:01:54Z</time>
      </trkpt>
      <trkpt lat="42.22034400" lon="2.165645000">
        <ele>731.00000</ele>
        <time>2010-01-01T00:02:01Z</time>
      </trkpt>
      <trkpt lat="42.22015000" lon="2.165670000">
        <ele>730.00000</ele>
        <time>2010-01-01T00:02:09Z</time>
      </trkpt>
      <trkpt lat="42.21997000" lon="2.165694000">
        <ele>730.00000</ele>
        <time>2010-01-01T00:02:16Z</time>
      </trkpt>
      <trkpt lat="42.21979800" lon="2.165768000">
        <ele>730.00000</ele>
        <time>2010-01-01T00:02:23Z</time>
      </trkpt>
      <trkpt lat="42.21961600" lon="2.165824000">
        <ele>730.00000</ele>
        <time>2010-01-01T00:02:31Z</time>
      </trkpt>
      <trkpt lat="42.21942900" lon="2.165871000">
        <ele>730.00000</ele>
        <time>2010-01-01T00:02:38Z</time>
      </trkpt>
      <trkpt lat="42.21924000" lon="2.165889000">
        <ele>728.00000</ele>
        <time>2010-01-01T00:02:46Z</time>
      </trkpt>
      <trkpt lat="42.21905300" lon="2.165912000">
        <ele>727.00000</ele>
        <time>2010-01-01T00:02:53Z</time>
      </trkpt>
      <trkpt lat="42.21886900" lon="2.165945000">
        <ele>726.00000</ele>
        <time>2010-01-01T00:03:01Z</time>
      </trkpt>
      <trkpt lat="42.21867200" lon="2.165961000">
        <ele>726.00000</ele>
        <time>2010-01-01T00:03:09Z</time>
      </trkpt>
      <trkpt lat="42.21848700" lon="2.165973000">
        <ele>726.00000</ele>
        <time>2010-01-01T00:03:16Z</time>
      </trkpt>
      <trkpt lat="42.21830000" lon="2.165982000">
        <ele>726.00000</ele>
        <time>2010-01-01T00:03:24Z</time>
      </trkpt>
      <trkpt lat="42.21811100" lon="2.166058000">
        <ele>726.00000</ele>
        <time>2010-01-01T00:03:31Z</time>
      </trkpt>
      <trkpt lat="42.21791800" lon="2.166073000">
        <ele>725.00000</ele>
        <time>2010-01-01T00:03:39Z</time>
      </trkpt>
      <trkpt lat="42.21773100" lon="2.166083000">
        <ele>724.00000</ele>
        <time>2010-01-01T00:03:47Z</time>
      </trkpt>
      <trkpt lat="42.21754900" lon="2.166101000">
        <ele>723.00000</ele>
        <time>2010-01-01T00:03:54Z</time>
      </trkpt>
      <trkpt lat="42.21736600" lon="2.166143000">
        <ele>723.00000</ele>
        <time>2010-01-01T00:04:01Z</time>
      </trkpt>
      <trkpt lat="42.21718400" lon="2.166184000">
        <ele>722.00000</ele>
        <time>2010-01-01T00:04:09Z</time>
      </trkpt>
      <trkpt lat="42.21703000" lon="2.166058000">
        <ele>722.00000</ele>
        <time>2010-01-01T00:04:16Z</time>
      </trkpt>
      <trkpt lat="42.21689600" lon="2.165893000">
        <ele>722.00000</ele>
        <time>2010-01-01T00:04:23Z</time>
      </trkpt>
      <trkpt lat="42.21677700" lon="2.165707000">
        <ele>724.00000</ele>
        <time>2010-01-01T00:04:31Z</time>
      </trkpt>
      <trkpt lat="42.21663500" lon="2.165868000">
        <ele>722.00000</ele>
        <time>2010-01-01T00:04:38Z</time>
      </trkpt>
      <trkpt lat="42.21645200" lon="2.165832000">
        <ele>724.00000</ele>
        <time>2010-01-01T00:04:45Z</time>
      </trkpt>
      <trkpt lat="42.21627600" lon="2.165901000">
        <ele>725.00000</ele>
        <time>2010-01-01T00:04:53Z</time>
      </trkpt>
      <trkpt lat="42.21609300" lon="2.165832000">
        <ele>729.00000</ele>
        <time>2010-01-01T00:05:00Z</time>
      </trkpt>
      <trkpt lat="42.21590500" lon="2.165814000">
        <ele>734.00000</ele>
        <time>2010-01-01T00:05:08Z</time>
      </trkpt>
      <trkpt lat="42.21572000" lon="2.165793000">
        <ele>736.00000</ele>
        <time>2010-01-01T00:05:15Z</time>
      </trkpt>
      <trkpt lat="42.21553500" lon="2.165763000">
        <ele>737.00000</ele>
        <time>2010-01-01T00:05:23Z</time>
      </trkpt>
      <trkpt lat="42.21534000" lon="2.165758000">
        <ele>737.00000</ele>
        <time>2010-01-01T00:05:31Z</time>
      </trkpt>
      <trkpt lat="42.21515500" lon="2.165768000">
        <ele>740.00000</ele>
        <time>2010-01-01T00:05:38Z</time>
      </trkpt>
      <trkpt lat="42.21498400" lon="2.165857000">
        <ele>740.00000</ele>
        <time>2010-01-01T00:05:45Z</time>
      </trkpt>
      <trkpt lat="42.21482500" lon="2.165988000">
        <ele>738.00000</ele>
        <time>2010-01-01T00:05:53Z</time>
      </trkpt>
      <trkpt lat="42.21466100" lon="2.166092000">
        <ele>737.00000</ele>
        <time>2010-01-01T00:06:00Z</time>
      </trkpt>
      <trkpt lat="42.21450000" lon="2.166232000">
        <ele>735.00000</ele>
        <time>2010-01-01T00:06:08Z</time>
      </trkpt>
      <trkpt lat="42.21431900" lon="2.166272000">
        <ele>739.00000</ele>
        <time>2010-01-01T00:06:15Z</time>
      </trkpt>
      <trkpt lat="42.21415900" lon="2.166394000">
        <ele>738.00000</ele>
        <time>2010-01-01T00:06:22Z</time>
      </trkpt>
      <trkpt lat="42.21400700" lon="2.166541000">
        <ele>738.00000</ele>
        <time>2010-01-01T00:06:30Z</time>
      </trkpt>
      <trkpt lat="42.21384500" lon="2.166423000">
        <ele>752.00000</ele>
        <time>2010-01-01T00:06:37Z</time>
      </trkpt>
      <trkpt lat="42.21366400" lon="2.166453000">
        <ele>759.00000</ele>
        <time>2010-01-01T00:06:45Z</time>
      </trkpt>
      <trkpt lat="42.21348300" lon="2.166404000">
        <ele>766.00000</ele>
        <time>2010-01-01T00:06:52Z</time>
      </trkpt>
      <trkpt lat="42.21330900" lon="2.166476000">
        <ele>765.00000</ele>
        <time>2010-01-01T00:06:59Z</time>
      </trkpt>
      <trkpt lat="42.21313900" lon="2.166386000">
        <ele>767.00000</ele>
        <time>2010-01-01T00:07:07Z</time>
      </trkpt>
      <trkpt lat="42.21295600" lon="2.166375000">
        <ele>763.00000</ele>
        <time>2010-01-01T00:07:14Z</time>
      </trkpt>
      <trkpt lat="42.21297100" lon="2.166131000">
        <ele>771.00000</ele>
        <time>2010-01-01T00:07:21Z</time>
      </trkpt>
      <trkpt lat="42.21297900" lon="2.165885000">
        <ele>775.00000</ele>
        <time>2010-01-01T00:07:28Z</time>
      </trkpt>
      <trkpt lat="42.21304100" lon="2.165651000">
        <ele>781.00000</ele>
        <time>2010-01-01T00:07:36Z</time>
      </trkpt>
      <trkpt lat="42.21306200" lon="2.165402000">
        <ele>783.00000</ele>
        <time>2010-01-01T00:07:43Z</time>
      </trkpt>
      <trkpt lat="42.21316400" lon="2.165202000">
        <ele>787.00000</ele>
        <time>2010-01-01T00:07:50Z</time>
      </trkpt>
      <trkpt lat="42.21321400" lon="2.164950000">
        <ele>788.00000</ele>
        <time>2010-01-01T00:07:58Z</time>
      </trkpt>
      <trkpt lat="42.21317300" lon="2.164702000">
        <ele>789.00000</ele>
        <time>2010-01-01T00:08:06Z</time>
      </trkpt>
      <trkpt lat="42.21307100" lon="2.164500000">
        <ele>791.00000</ele>
        <time>2010-01-01T00:08:13Z</time>
      </trkpt>
      <trkpt lat="42.21288700" lon="2.164418000">
        <ele>786.00000</ele>
        <time>2010-01-01T00:08:21Z</time>
      </trkpt>
      <trkpt lat="42.21270900" lon="2.164478000">
        <ele>780.00000</ele>
        <time>2010-01-01T00:08:28Z</time>
      </trkpt>
      <trkpt lat="42.21252000" lon="2.164489000">
        <ele>774.00000</ele>
        <time>2010-01-01T00:08:36Z</time>
      </trkpt>
      <trkpt lat="42.21235600" lon="2.164389000">
        <ele>770.00000</ele>
        <time>2010-01-01T00:08:43Z</time>
      </trkpt>
      <trkpt lat="42.21238500" lon="2.164136000">
        <ele>771.00000</ele>
        <time>2010-01-01T00:08:50Z</time>
      </trkpt>
      <trkpt lat="42.21241700" lon="2.163893000">
        <ele>774.00000</ele>
        <time>2010-01-01T00:08:58Z</time>
      </trkpt>
      <trkpt lat="42.21236600" lon="2.163659000">
        <ele>772.00000</ele>
        <time>2010-01-01T00:09:05Z</time>
      </trkpt>
      <trkpt lat="42.21241500" lon="2.163424000">
        <ele>775.00000</ele>
        <time>2010-01-01T00:09:12Z</time>
      </trkpt>
      <trkpt lat="42.21239100" lon="2.163177000">
        <ele>776.00000</ele>
        <time>2010-01-01T00:09:20Z</time>
      </trkpt>
      <trkpt lat="42.21231200" lon="2.162942000">
        <ele>776.00000</ele>
        <time>2010-01-01T00:09:27Z</time>
      </trkpt>
      <trkpt lat="42.21227100" lon="2.162680000">
        <ele>778.00000</ele>
        <time>2010-01-01T00:09:35Z</time>
      </trkpt>
      <trkpt lat="42.21222300" lon="2.162444000">
        <ele>778.00000</ele>
        <time>2010-01-01T00:09:42Z</time>
      </trkpt>
      <trkpt lat="42.21206500" lon="2.162317000">
        <ele>774.00000</ele>
        <time>2010-01-01T00:09:50Z</time>
      </trkpt>
      <trkpt lat="42.21195200" lon="2.162116000">
        <ele>771.00000</ele>
        <time>2010-01-01T00:09:57Z</time>
      </trkpt>
      <trkpt lat="42.21183600" lon="2.161926000">
        <ele>770.00000</ele>
        <time>2010-01-01T00:10:05Z</time>
      </trkpt>
      <trkpt lat="42.21180300" lon="2.161679000">
        <ele>770.00000</ele>
        <time>2010-01-01T00:10:12Z</time>
      </trkpt>
      <trkpt lat="42.21163400" lon="2.161554000">
        <ele>771.00000</ele>
        <time>2010-01-01T00:10:20Z</time>
      </trkpt>
      <trkpt lat="42.21145300" lon="2.161568000">
        <ele>773.00000</ele>
        <time>2010-01-01T00:10:27Z</time>
      </trkpt>
      <trkpt lat="42.21137200" lon="2.161790000">
        <ele>776.00000</ele>
        <time>2010-01-01T00:10:34Z</time>
      </trkpt>
      <trkpt lat="42.21139400" lon="2.162037000">
        <ele>776.00000</ele>
        <time>2010-01-01T00:10:42Z</time>
      </trkpt>
      <trkpt lat="42.21137800" lon="2.162288000">
        <ele>778.00000</ele>
        <time>2010-01-01T00:10:49Z</time>
      </trkpt>
      <trkpt lat="42.21140600" lon="2.162554000">
        <ele>774.00000</ele>
        <time>2010-01-01T00:10:57Z</time>
      </trkpt>
      <trkpt lat="42.21141400" lon="2.162806000">
        <ele>773.00000</ele>
        <time>2010-01-01T00:11:05Z</time>
      </trkpt>
      <trkpt lat="42.21136900" lon="2.163048000">
        <ele>774.00000</ele>
        <time>2010-01-01T00:11:12Z</time>
      </trkpt>
      <trkpt lat="42.21132400" lon="2.163299000">
        <ele>775.00000</ele>
        <time>2010-01-01T00:11:20Z</time>
      </trkpt>
      <trkpt lat="42.21125000" lon="2.163522000">
        <ele>776.00000</ele>
        <time>2010-01-01T00:11:27Z</time>
      </trkpt>
      <trkpt lat="42.21113100" lon="2.163715000">
        <ele>780.00000</ele>
        <time>2010-01-01T00:11:34Z</time>
      </trkpt>
      <trkpt lat="42.21101700" lon="2.163911000">
        <ele>780.00000</ele>
        <time>2010-01-01T00:11:42Z</time>
      </trkpt>
      <trkpt lat="42.21084700" lon="2.163995000">
        <ele>785.00000</ele>
        <time>2010-01-01T00:11:49Z</time>
      </trkpt>
      <trkpt lat="42.21065400" lon="2.163969000">
        <ele>791.00000</ele>
        <time>2010-01-01T00:11:57Z</time>
      </trkpt>
      <trkpt lat="42.21048200" lon="2.164046000">
        <ele>794.00000</ele>
        <time>2010-01-01T00:12:04Z</time>
      </trkpt>
      <trkpt lat="42.21043100" lon="2.164286000">
        <ele>793.00000</ele>
        <time>2010-01-01T00:12:11Z</time>
      </trkpt>
      <trkpt lat="42.21046200" lon="2.164534000">
        <ele>793.00000</ele>
        <time>2010-01-01T00:12:19Z</time>
      </trkpt>
      <trkpt lat="42.21061400" lon="2.164675000">
        <ele>787.00000</ele>
        <time>2010-01-01T00:12:26Z</time>
      </trkpt>
      <trkpt lat="42.21055300" lon="2.164912000">
        <ele>795.00000</ele>
        <time>2010-01-01T00:12:34Z</time>
      </trkpt>
      <trkpt lat="42.21052900" lon="2.165159000">
        <ele>801.00000</ele>
        <time>2010-01-01T00:12:41Z</time>
      </trkpt>
      <trkpt lat="42.21058200" lon="2.165392000">
        <ele>800.00000</ele>
        <time>2010-01-01T00:12:48Z</time>
      </trkpt>
      <trkpt lat="42.21059400" lon="2.165639000">
        <ele>800.00000</ele>
        <time>2010-01-01T00:12:56Z</time>
      </trkpt>
      <trkpt lat="42.21053400" lon="2.165876000">
        <ele>804.00000</ele>
        <time>2010-01-01T00:13:03Z</time>
      </trkpt>
      <trkpt lat="42.21053400" lon="2.166130000">
        <ele>803.00000</ele>
        <time>2010-01-01T00:13:11Z</time>
      </trkpt>
      <trkpt lat="42.21050800" lon="2.166378000">
        <ele>802.00000</ele>
        <time>2010-01-01T00:13:18Z</time>
      </trkpt>
      <trkpt lat="42.21035400" lon="2.166524000">
        <ele>805.00000</ele>
        <time>2010-01-01T00:13:26Z</time>
      </trkpt>
      <trkpt lat="42.21023600" lon="2.166724000">
        <ele>803.00000</ele>
        <time>2010-01-01T00:13:33Z</time>
      </trkpt>
      <trkpt lat="42.21013400" lon="2.166944000">
        <ele>797.00000</ele>
        <time>2010-01-01T00:13:41Z</time>
      </trkpt>
      <trkpt lat="42.20997700" lon="2.167073000">
        <ele>795.00000</ele>
        <time>2010-01-01T00:13:48Z</time>
      </trkpt>
      <trkpt lat="42.20984500" lon="2.167239000">
        <ele>791.00000</ele>
        <time>2010-01-01T00:13:55Z</time>
      </trkpt>
      <trkpt lat="42.20970300" lon="2.167411000">
        <ele>789.00000</ele>
        <time>2010-01-01T00:14:03Z</time>
      </trkpt>
      <trkpt lat="42.20954600" lon="2.167534000">
        <ele>788.00000</ele>
        <time>2010-01-01T00:14:10Z</time>
      </trkpt>
      <trkpt lat="42.20935900" lon="2.167583000">
        <ele>790.00000</ele>
        <time>2010-01-01T00:14:18Z</time>
      </trkpt>
      <trkpt lat="42.20917700" lon="2.167562000">
        <ele>793.00000</ele>
        <time>2010-01-01T00:14:25Z</time>
      </trkpt>
      <trkpt lat="42.20900200" lon="2.167622000">
        <ele>788.00000</ele>
        <time>2010-01-01T00:14:33Z</time>
      </trkpt>
      <trkpt lat="42.20882100" lon="2.167729000">
        <ele>783.00000</ele>
        <time>2010-01-01T00:14:40Z</time>
      </trkpt>
      <trkpt lat="42.20863600" lon="2.167771000">
        <ele>778.00000</ele>
        <time>2010-01-01T00:14:48Z</time>
      </trkpt>
      <trkpt lat="42.20852700" lon="2.167576000">
        <ele>778.00000</ele>
        <time>2010-01-01T00:14:55Z</time>
      </trkpt>
      <trkpt lat="42.20839300" lon="2.167403000">
        <ele>774.00000</ele>
        <time>2010-01-01T00:15:03Z</time>
      </trkpt>
      <trkpt lat="42.20824400" lon="2.167268000">
        <ele>769.00000</ele>
        <time>2010-01-01T00:15:10Z</time>
      </trkpt>
      <trkpt lat="42.20817000" lon="2.167039000">
        <ele>769.00000</ele>
        <time>2010-01-01T00:15:17Z</time>
      </trkpt>
      <trkpt lat="42.20808700" lon="2.166811000">
        <ele>768.00000</ele>
        <time>2010-01-01T00:15:25Z</time>
      </trkpt>
      <trkpt lat="42.20808700" lon="2.166560000">
        <ele>769.00000</ele>
        <time>2010-01-01T00:15:32Z</time>
      </trkpt>
      <trkpt lat="42.20791300" lon="2.166638000">
        <ele>767.00000</ele>
        <time>2010-01-01T00:15:39Z</time>
      </trkpt>
      <trkpt lat="42.20774700" lon="2.166743000">
        <ele>766.00000</ele>
        <time>2010-01-01T00:15:47Z</time>
      </trkpt>
      <trkpt lat="42.20762200" lon="2.166923000">
        <ele>764.00000</ele>
        <time>2010-01-01T00:15:54Z</time>
      </trkpt>
      <trkpt lat="42.20747000" lon="2.167065000">
        <ele>761.00000</ele>
        <time>2010-01-01T00:16:02Z</time>
      </trkpt>
      <trkpt lat="42.20734500" lon="2.167253000">
        <ele>757.00000</ele>
        <time>2010-01-01T00:16:09Z</time>
      </trkpt>
      <trkpt lat="42.20723600" lon="2.167465000">
        <ele>756.00000</ele>
        <time>2010-01-01T00:16:17Z</time>
      </trkpt>
      <trkpt lat="42.20716300" lon="2.167692000">
        <ele>755.00000</ele>
        <time>2010-01-01T00:16:24Z</time>
      </trkpt>
      <trkpt lat="42.20706400" lon="2.167904000">
        <ele>754.00000</ele>
        <time>2010-01-01T00:16:31Z</time>
      </trkpt>
      <trkpt lat="42.20693200" lon="2.168073000">
        <ele>753.00000</ele>
        <time>2010-01-01T00:16:39Z</time>
      </trkpt>
      <trkpt lat="42.20675900" lon="2.167994000">
        <ele>755.00000</ele>
        <time>2010-01-01T00:16:46Z</time>
      </trkpt>
      <trkpt lat="42.20659800" lon="2.167883000">
        <ele>756.00000</ele>
        <time>2010-01-01T00:16:53Z</time>
      </trkpt>
      <trkpt lat="42.20641600" lon="2.167822000">
        <ele>754.00000</ele>
        <time>2010-01-01T00:17:01Z</time>
      </trkpt>
      <trkpt lat="42.20625000" lon="2.167709000">
        <ele>754.00000</ele>
        <time>2010-01-01T00:17:08Z</time>
      </trkpt>
      <trkpt lat="42.20612300" lon="2.167509000">
        <ele>756.00000</ele>
        <time>2010-01-01T00:17:16Z</time>
      </trkpt>
      <trkpt lat="42.20607000" lon="2.167267000">
        <ele>761.00000</ele>
        <time>2010-01-01T00:17:24Z</time>
      </trkpt>
      <trkpt lat="42.20590400" lon="2.167169000">
        <ele>758.00000</ele>
        <time>2010-01-01T00:17:31Z</time>
      </trkpt>
      <trkpt lat="42.20577300" lon="2.166986000">
        <ele>756.00000</ele>
        <time>2010-01-01T00:17:38Z</time>
      </trkpt>
      <trkpt lat="42.20574300" lon="2.166732000">
        <ele>755.00000</ele>
        <time>2010-01-01T00:17:46Z</time>
      </trkpt>
      <trkpt lat="42.20568900" lon="2.166500000">
        <ele>754.00000</ele>
        <time>2010-01-01T00:17:53Z</time>
      </trkpt>
      <trkpt lat="42.20566500" lon="2.166750000">
        <ele>752.00000</ele>
        <time>2010-01-01T00:18:01Z</time>
      </trkpt>
      <trkpt lat="42.20565300" lon="2.166996000">
        <ele>751.00000</ele>
        <time>2010-01-01T00:18:08Z</time>
      </trkpt>
      <trkpt lat="42.20568900" lon="2.167244000">
        <ele>750.00000</ele>
        <time>2010-01-01T00:18:15Z</time>
      </trkpt>
      <trkpt lat="42.20577000" lon="2.167473000">
        <ele>748.00000</ele>
        <time>2010-01-01T00:18:23Z</time>
      </trkpt>
      <trkpt lat="42.20589700" lon="2.167652000">
        <ele>748.00000</ele>
        <time>2010-01-01T00:18:30Z</time>
      </trkpt>
      <trkpt lat="42.20595800" lon="2.167891000">
        <ele>744.00000</ele>
        <time>2010-01-01T00:18:38Z</time>
      </trkpt>
      <trkpt lat="42.20598100" lon="2.168134000">
        <ele>741.00000</ele>
        <time>2010-01-01T00:18:45Z</time>
      </trkpt>
      <trkpt lat="42.20594200" lon="2.168374000">
        <ele>736.00000</ele>
        <time>2010-01-01T00:18:52Z</time>
      </trkpt>
      <trkpt lat="42.20595400" lon="2.168619000">
        <ele>733.00000</ele>
        <time>2010-01-01T00:19:00Z</time>
      </trkpt>
      <trkpt lat="42.20598800" lon="2.168861000">
        <ele>733.00000</ele>
        <time>2010-01-01T00:19:07Z</time>
      </trkpt>
      <trkpt lat="42.20601600" lon="2.169108000">
        <ele>732.00000</ele>
        <time>2010-01-01T00:19:14Z</time>
      </trkpt>
      <trkpt lat="42.20600600" lon="2.169360000">
        <ele>729.00000</ele>
        <time>2010-01-01T00:19:22Z</time>
      </trkpt>
      <trkpt lat="42.20595900" lon="2.169594000">
        <ele>726.00000</ele>
        <time>2010-01-01T00:19:29Z</time>
      </trkpt>
      <trkpt lat="42.20582400" lon="2.169789000">
        <ele>719.00000</ele>
        <time>2010-01-01T00:19:37Z</time>
      </trkpt>
      <trkpt lat="42.20572100" lon="2.169997000">
        <ele>714.00000</ele>
        <time>2010-01-01T00:19:44Z</time>
      </trkpt>
      <trkpt lat="42.20559000" lon="2.170166000">
        <ele>713.00000</ele>
        <time>2010-01-01T00:19:52Z</time>
      </trkpt>
      <trkpt lat="42.20543500" lon="2.170300000">
        <ele>714.00000</ele>
        <time>2010-01-01T00:19:59Z</time>
      </trkpt>
      <trkpt lat="42.20546800" lon="2.170542000">
        <ele>711.00000</ele>
        <time>2010-01-01T00:20:06Z</time>
      </trkpt>
      <trkpt lat="42.20565400" lon="2.170538000">
        <ele>711.00000</ele>
        <time>2010-01-01T00:20:14Z</time>
      </trkpt>
      <trkpt lat="42.20581000" lon="2.170667000">
        <ele>711.00000</ele>
        <time>2010-01-01T00:20:21Z</time>
      </trkpt>
      <trkpt lat="42.20591600" lon="2.170864000">
        <ele>709.00000</ele>
        <time>2010-01-01T00:20:28Z</time>
      </trkpt>
      <trkpt lat="42.20601700" lon="2.171083000">
        <ele>707.00000</ele>
        <time>2010-01-01T00:20:36Z</time>
      </trkpt>
      <trkpt lat="42.20603700" lon="2.171332000">
        <ele>705.00000</ele>
        <time>2010-01-01T00:20:43Z</time>
      </trkpt>
      <trkpt lat="42.20596600" lon="2.171566000">
        <ele>704.00000</ele>
        <time>2010-01-01T00:20:51Z</time>
      </trkpt>
      <trkpt lat="42.20582500" lon="2.171732000">
        <ele>705.00000</ele>
        <time>2010-01-01T00:20:58Z</time>
      </trkpt>
      <trkpt lat="42.20569200" lon="2.171909000">
        <ele>706.00000</ele>
        <time>2010-01-01T00:21:06Z</time>
      </trkpt>
      <trkpt lat="42.20563600" lon="2.172162000">
        <ele>706.00000</ele>
        <time>2010-01-01T00:21:14Z</time>
      </trkpt>
      <trkpt lat="42.20552400" lon="2.172371000">
        <ele>708.00000</ele>
        <time>2010-01-01T00:21:21Z</time>
      </trkpt>
      <trkpt lat="42.20546200" lon="2.172609000">
        <ele>706.00000</ele>
        <time>2010-01-01T00:21:29Z</time>
      </trkpt>
      <trkpt lat="42.20538600" lon="2.172842000">
        <ele>704.00000</ele>
        <time>2010-01-01T00:21:36Z</time>
      </trkpt>
      <trkpt lat="42.20544700" lon="2.173075000">
        <ele>702.00000</ele>
        <time>2010-01-01T00:21:44Z</time>
      </trkpt>
      <trkpt lat="42.20540300" lon="2.173332000">
        <ele>702.00000</ele>
        <time>2010-01-01T00:21:51Z</time>
      </trkpt>
      <trkpt lat="42.20524200" lon="2.173461000">
        <ele>703.00000</ele>
        <time>2010-01-01T00:21:59Z</time>
      </trkpt>
      <trkpt lat="42.20508600" lon="2.173611000">
        <ele>703.00000</ele>
        <time>2010-01-01T00:22:07Z</time>
      </trkpt>
      <trkpt lat="42.20503000" lon="2.173845000">
        <ele>704.00000</ele>
        <time>2010-01-01T00:22:14Z</time>
      </trkpt>
      <trkpt lat="42.20502100" lon="2.174104000">
        <ele>705.00000</ele>
        <time>2010-01-01T00:22:22Z</time>
      </trkpt>
      <trkpt lat="42.20506900" lon="2.174344000">
        <ele>705.00000</ele>
        <time>2010-01-01T00:22:29Z</time>
      </trkpt>
      <trkpt lat="42.20513900" lon="2.174572000">
        <ele>705.00000</ele>
        <time>2010-01-01T00:22:36Z</time>
      </trkpt>
      <trkpt lat="42.20513000" lon="2.174815000">
        <ele>704.00000</ele>
        <time>2010-01-01T00:22:44Z</time>
      </trkpt>
      <trkpt lat="42.20507200" lon="2.175051000">
        <ele>704.00000</ele>
        <time>2010-01-01T00:22:51Z</time>
      </trkpt>
      <trkpt lat="42.20497300" lon="2.175274000">
        <ele>704.00000</ele>
        <time>2010-01-01T00:22:59Z</time>
      </trkpt>
      <trkpt lat="42.20486500" lon="2.175486000">
        <ele>702.00000</ele>
        <time>2010-01-01T00:23:06Z</time>
      </trkpt>
      <trkpt lat="42.20473400" lon="2.175652000">
        <ele>702.00000</ele>
        <time>2010-01-01T00:23:13Z</time>
      </trkpt>
      <trkpt lat="42.20459600" lon="2.175821000">
        <ele>703.00000</ele>
        <time>2010-01-01T00:23:21Z</time>
      </trkpt>
      <trkpt lat="42.20445700" lon="2.175985000">
        <ele>703.00000</ele>
        <time>2010-01-01T00:23:28Z</time>
      </trkpt>
      <trkpt lat="42.20431900" lon="2.176143000">
        <ele>703.00000</ele>
        <time>2010-01-01T00:23:36Z</time>
      </trkpt>
      <trkpt lat="42.20419900" lon="2.176327000">
        <ele>703.00000</ele>
        <time>2010-01-01T00:23:43Z</time>
      </trkpt>
      <trkpt lat="42.20407200" lon="2.176509000">
        <ele>703.00000</ele>
        <time>2010-01-01T00:23:50Z</time>
      </trkpt>
      <trkpt lat="42.20394700" lon="2.176696000">
        <ele>703.00000</ele>
        <time>2010-01-01T00:23:58Z</time>
      </trkpt>
      <trkpt lat="42.20383100" lon="2.176900000">
        <ele>705.00000</ele>
        <time>2010-01-01T00:24:05Z</time>
      </trkpt>
      <trkpt lat="42.20370400" lon="2.177088000">
        <ele>705.00000</ele>
        <time>2010-01-01T00:24:13Z</time>
      </trkpt>
      <trkpt lat="42.20358800" lon="2.177303000">
        <ele>706.00000</ele>
        <time>2010-01-01T00:24:21Z</time>
      </trkpt>
      <trkpt lat="42.20347200" lon="2.177493000">
        <ele>706.00000</ele>
        <time>2010-01-01T00:24:28Z</time>
      </trkpt>
      <trkpt lat="42.20329500" lon="2.177442000">
        <ele>706.00000</ele>
        <time>2010-01-01T00:24:35Z</time>
      </trkpt>
      <trkpt lat="42.20345400" lon="2.177559000">
        <ele>705.00000</ele>
        <time>2010-01-01T00:24:43Z</time>
      </trkpt>
      <trkpt lat="42.20340600" lon="2.177805000">
        <ele>703.00000</ele>
        <time>2010-01-01T00:24:50Z</time>
      </trkpt>
      <trkpt lat="42.20332800" lon="2.178034000">
        <ele>703.00000</ele>
        <time>2010-01-01T00:24:58Z</time>
      </trkpt>
      <trkpt lat="42.20330500" lon="2.178287000">
        <ele>702.00000</ele>
        <time>2010-01-01T00:25:05Z</time>
      </trkpt>
      <trkpt lat="42.20330200" lon="2.178533000">
        <ele>700.00000</ele>
        <time>2010-01-01T00:25:12Z</time>
      </trkpt>
      <trkpt lat="42.20335900" lon="2.178770000">
        <ele>700.00000</ele>
        <time>2010-01-01T00:25:20Z</time>
      </trkpt>
      <trkpt lat="42.20348100" lon="2.178971000">
        <ele>699.00000</ele>
        <time>2010-01-01T00:25:27Z</time>
      </trkpt>
      <trkpt lat="42.20358900" lon="2.179185000">
        <ele>697.00000</ele>
        <time>2010-01-01T00:25:35Z</time>
      </trkpt>
      <trkpt lat="42.20365000" lon="2.179414000">
        <ele>696.00000</ele>
        <time>2010-01-01T00:25:42Z</time>
      </trkpt>
      <trkpt lat="42.20374900" lon="2.179617000">
        <ele>696.00000</ele>
        <time>2010-01-01T00:25:50Z</time>
      </trkpt>
      <trkpt lat="42.20379800" lon="2.179852000">
        <ele>696.00000</ele>
        <time>2010-01-01T00:25:57Z</time>
      </trkpt>
      <trkpt lat="42.20388200" lon="2.180082000">
        <ele>697.00000</ele>
        <time>2010-01-01T00:26:04Z</time>
      </trkpt>
      <trkpt lat="42.20394100" lon="2.180314000">
        <ele>698.00000</ele>
        <time>2010-01-01T00:26:12Z</time>
      </trkpt>
      <trkpt lat="42.20394800" lon="2.180562000">
        <ele>699.00000</ele>
        <time>2010-01-01T00:26:19Z</time>
      </trkpt>
      <trkpt lat="42.20389600" lon="2.180807000">
        <ele>698.00000</ele>
        <time>2010-01-01T00:26:27Z</time>
      </trkpt>
      <trkpt lat="42.20381700" lon="2.181030000">
        <ele>696.00000</ele>
        <time>2010-01-01T00:26:34Z</time>
      </trkpt>
      <trkpt lat="42.20372400" lon="2.181245000">
        <ele>695.00000</ele>
        <time>2010-01-01T00:26:41Z</time>
      </trkpt>
      <trkpt lat="42.20383100" lon="2.181456000">
        <ele>696.00000</ele>
        <time>2010-01-01T00:26:49Z</time>
      </trkpt>
      <trkpt lat="42.20369200" lon="2.181290000">
        <ele>695.00000</ele>
        <time>2010-01-01T00:26:56Z</time>
      </trkpt>
      <trkpt lat="42.20351800" lon="2.181377000">
        <ele>695.00000</ele>
        <time>2010-01-01T00:27:04Z</time>
      </trkpt>
      <trkpt lat="42.20336300" lon="2.181504000">
        <ele>695.00000</ele>
        <time>2010-01-01T00:27:11Z</time>
      </trkpt>
      <trkpt lat="42.20319700" lon="2.181608000">
        <ele>694.00000</ele>
        <time>2010-01-01T00:27:18Z</time>
      </trkpt>
      <trkpt lat="42.20302500" lon="2.181718000">
        <ele>694.00000</ele>
        <time>2010-01-01T00:27:26Z</time>
      </trkpt>
      <trkpt lat="42.20288800" lon="2.181877000">
        <ele>694.00000</ele>
        <time>2010-01-01T00:27:33Z</time>
      </trkpt>
      <trkpt lat="42.20274700" lon="2.182047000">
        <ele>695.00000</ele>
        <time>2010-01-01T00:27:41Z</time>
      </trkpt>
      <trkpt lat="42.20263600" lon="2.182244000">
        <ele>695.00000</ele>
        <time>2010-01-01T00:27:48Z</time>
      </trkpt>
      <trkpt lat="42.20249100" lon="2.182396000">
        <ele>694.00000</ele>
        <time>2010-01-01T00:27:55Z</time>
      </trkpt>
      <trkpt lat="42.20235200" lon="2.182554000">
        <ele>695.00000</ele>
        <time>2010-01-01T00:28:03Z</time>
      </trkpt>
      <trkpt lat="42.20223400" lon="2.182744000">
        <ele>695.00000</ele>
        <time>2010-01-01T00:28:10Z</time>
      </trkpt>
      <trkpt lat="42.20212800" lon="2.182949000">
        <ele>696.00000</ele>
        <time>2010-01-01T00:28:18Z</time>
      </trkpt>
      <trkpt lat="42.20198000" lon="2.183091000">
        <ele>697.00000</ele>
        <time>2010-01-01T00:28:25Z</time>
      </trkpt>
      <trkpt lat="42.20193900" lon="2.183331000">
        <ele>697.00000</ele>
        <time>2010-01-01T00:28:32Z</time>
      </trkpt>
      <trkpt lat="42.20185200" lon="2.183555000">
        <ele>697.00000</ele>
        <time>2010-01-01T00:28:40Z</time>
      </trkpt>
      <trkpt lat="42.20175200" lon="2.183785000">
        <ele>695.00000</ele>
        <time>2010-01-01T00:28:47Z</time>
      </trkpt>
      <trkpt lat="42.20163600" lon="2.183978000">
        <ele>694.00000</ele>
        <time>2010-01-01T00:28:55Z</time>
      </trkpt>
      <trkpt lat="42.20150100" lon="2.184150000">
        <ele>694.00000</ele>
        <time>2010-01-01T00:29:02Z</time>
      </trkpt>
      <trkpt lat="42.20140900" lon="2.184364000">
        <ele>693.00000</ele>
        <time>2010-01-01T00:29:10Z</time>
      </trkpt>
      <trkpt lat="42.20131400" lon="2.184591000">
        <ele>693.00000</ele>
        <time>2010-01-01T00:29:17Z</time>
      </trkpt>
      <trkpt lat="42.20121900" lon="2.184814000">
        <ele>693.00000</ele>
        <time>2010-01-01T00:29:25Z</time>
      </trkpt>
      <trkpt lat="42.20107800" lon="2.184971000">
        <ele>694.00000</ele>
        <time>2010-01-01T00:29:32Z</time>
      </trkpt>
      <trkpt lat="42.20098500" lon="2.185182000">
        <ele>694.00000</ele>
        <time>2010-01-01T00:29:40Z</time>
      </trkpt>
      <trkpt lat="42.20092300" lon="2.185413000">
        <ele>693.00000</ele>
        <time>2010-01-01T00:29:47Z</time>
      </trkpt>
      <trkpt lat="42.20086800" lon="2.185653000">
        <ele>693.00000</ele>
        <time>2010-01-01T00:29:54Z</time>
      </trkpt>
      <trkpt lat="42.20075700" lon="2.185849000">
        <ele>693.00000</ele>
        <time>2010-01-01T00:30:02Z</time>
      </trkpt>
      <trkpt lat="42.20065100" lon="2.186059000">
        <ele>692.00000</ele>
        <time>2010-01-01T00:30:09Z</time>
      </trkpt>
      <trkpt lat="42.20050300" lon="2.186212000">
        <ele>693.00000</ele>
        <time>2010-01-01T00:30:17Z</time>
      </trkpt>
      <trkpt lat="42.20037300" lon="2.186386000">
        <ele>694.00000</ele>
        <time>2010-01-01T00:30:24Z</time>
      </trkpt>
      <trkpt lat="42.20025100" lon="2.186573000">
        <ele>693.00000</ele>
        <time>2010-01-01T00:30:31Z</time>
      </trkpt>
      <trkpt lat="42.20012200" lon="2.186755000">
        <ele>692.00000</ele>
        <time>2010-01-01T00:30:39Z</time>
      </trkpt>
      <trkpt lat="42.19998200" lon="2.186920000">
        <ele>692.00000</ele>
        <time>2010-01-01T00:30:46Z</time>
      </trkpt>
      <trkpt lat="42.19983700" lon="2.187081000">
        <ele>690.00000</ele>
        <time>2010-01-01T00:30:54Z</time>
      </trkpt>
      <trkpt lat="42.19976200" lon="2.187320000">
        <ele>688.00000</ele>
        <time>2010-01-01T00:31:01Z</time>
      </trkpt>
      <trkpt lat="42.19959900" lon="2.187424000">
        <ele>689.00000</ele>
        <time>2010-01-01T00:31:09Z</time>
      </trkpt>
      <trkpt lat="42.19942200" lon="2.187492000">
        <ele>690.00000</ele>
        <time>2010-01-01T00:31:16Z</time>
      </trkpt>
      <trkpt lat="42.19924600" lon="2.187582000">
        <ele>692.00000</ele>
        <time>2010-01-01T00:31:24Z</time>
      </trkpt>
      <trkpt lat="42.19909300" lon="2.187732000">
        <ele>695.00000</ele>
        <time>2010-01-01T00:31:31Z</time>
      </trkpt>
      <trkpt lat="42.19906700" lon="2.187977000">
        <ele>694.00000</ele>
        <time>2010-01-01T00:31:38Z</time>
      </trkpt>
      <trkpt lat="42.19916400" lon="2.188190000">
        <ele>690.00000</ele>
        <time>2010-01-01T00:31:46Z</time>
      </trkpt>
      <trkpt lat="42.19918400" lon="2.188450000">
        <ele>689.00000</ele>
        <time>2010-01-01T00:31:54Z</time>
      </trkpt>
      <trkpt lat="42.19917800" lon="2.188698000">
        <ele>690.00000</ele>
        <time>2010-01-01T00:32:01Z</time>
      </trkpt>
      <trkpt lat="42.19920000" lon="2.188942000">
        <ele>690.00000</ele>
        <time>2010-01-01T00:32:08Z</time>
      </trkpt>
      <trkpt lat="42.19921100" lon="2.189195000">
        <ele>690.00000</ele>
        <time>2010-01-01T00:32:16Z</time>
      </trkpt>
      <trkpt lat="42.19919600" lon="2.189446000">
        <ele>689.00000</ele>
        <time>2010-01-01T00:32:23Z</time>
      </trkpt>
      <trkpt lat="42.19914600" lon="2.189696000">
        <ele>688.00000</ele>
        <time>2010-01-01T00:32:31Z</time>
      </trkpt>
      <trkpt lat="42.19909300" lon="2.189931000">
        <ele>690.00000</ele>
        <time>2010-01-01T00:32:38Z</time>
      </trkpt>
      <trkpt lat="42.19902600" lon="2.190162000">
        <ele>693.00000</ele>
        <time>2010-01-01T00:32:46Z</time>
      </trkpt>
      <trkpt lat="42.19893200" lon="2.190383000">
        <ele>695.00000</ele>
        <time>2010-01-01T00:32:53Z</time>
      </trkpt>
      <trkpt lat="42.19886900" lon="2.190617000">
        <ele>696.00000</ele>
        <time>2010-01-01T00:33:01Z</time>
      </trkpt>
      <trkpt lat="42.19872500" lon="2.190808000">
        <ele>694.00000</ele>
        <time>2010-01-01T00:33:09Z</time>
      </trkpt>
    </trkseg>
  </trk>
</gpx>
